<?xml version="1.0" encoding="UTF-8" standalone="no" ?>
<gpx xmlns="http://www.topografix.com/GPX/1/1" xmlns:xsi="http://www.w3.org/2001/XMLSchema-instance" xsi:schemaLocation="http://www.topografix.com/GPX/1/1 http://www.topografix.com/GPX/1/1/gpx.xsd" version="1.1" creator="VisuGPX - https://www.visugpx.com">
  <metadata>
    <name>Entrainement VTT du 19-08-2014</name>
    <desc><![CDATA[Reprise après blessure. Que de la route ou presque.]]></desc>
  </metadata>
  <trk>
    <name><![CDATA[Entrainement VTT du 19-08-2014_1]]></name>
    <trkseg>
      <trkpt lat="45.18579" lon="0.63311">
        <ele>79</ele>
        <time>2014-08-19T12:59:17Z</time>
      </trkpt>
      <trkpt lat="45.18579" lon="0.63311">
        <ele>85.19</ele>
        <time>2014-08-19T12:59:21Z</time>
      </trkpt>
      <trkpt lat="45.186" lon="0.63338">
        <ele>68.4</ele>
        <time>2014-08-19T13:00:29Z</time>
      </trkpt>
      <trkpt lat="45.18564" lon="0.63387">
        <ele>67.3</ele>
        <time>2014-08-19T13:00:43Z</time>
      </trkpt>
      <trkpt lat="45.18534" lon="0.63359">
        <ele>67.5</ele>
        <time>2014-08-19T13:00:51Z</time>
      </trkpt>
      <trkpt lat="45.18515" lon="0.63346">
        <ele>67.4</ele>
        <time>2014-08-19T13:00:56Z</time>
      </trkpt>
      <trkpt lat="45.18497" lon="0.63333">
        <ele>66.59</ele>
        <time>2014-08-19T13:01:02Z</time>
      </trkpt>
      <trkpt lat="45.18491" lon="0.6336">
        <ele>66.19</ele>
        <time>2014-08-19T13:01:11Z</time>
      </trkpt>
      <trkpt lat="45.18491" lon="0.63391">
        <ele>65.9</ele>
        <time>2014-08-19T13:01:16Z</time>
      </trkpt>
      <trkpt lat="45.18493" lon="0.63428">
        <ele>67</ele>
        <time>2014-08-19T13:01:22Z</time>
      </trkpt>
      <trkpt lat="45.18493" lon="0.63464">
        <ele>67.59</ele>
        <time>2014-08-19T13:01:28Z</time>
      </trkpt>
      <trkpt lat="45.18495" lon="0.63504">
        <ele>69.8</ele>
        <time>2014-08-19T13:01:35Z</time>
      </trkpt>
      <trkpt lat="45.18497" lon="0.63533">
        <ele>70.8</ele>
        <time>2014-08-19T13:01:40Z</time>
      </trkpt>
      <trkpt lat="45.18498" lon="0.63571">
        <ele>71.9</ele>
        <time>2014-08-19T13:01:46Z</time>
      </trkpt>
      <trkpt lat="45.18502" lon="0.63603">
        <ele>72.09</ele>
        <time>2014-08-19T13:01:51Z</time>
      </trkpt>
      <trkpt lat="45.18509" lon="0.63643">
        <ele>73</ele>
        <time>2014-08-19T13:01:57Z</time>
      </trkpt>
      <trkpt lat="45.18518" lon="0.63685">
        <ele>73.8</ele>
        <time>2014-08-19T13:02:03Z</time>
      </trkpt>
      <trkpt lat="45.18521" lon="0.63707">
        <ele>74.19</ele>
        <time>2014-08-19T13:02:06Z</time>
      </trkpt>
      <trkpt lat="45.18525" lon="0.63727">
        <ele>74.5</ele>
        <time>2014-08-19T13:02:09Z</time>
      </trkpt>
      <trkpt lat="45.18532" lon="0.63759">
        <ele>74.5</ele>
        <time>2014-08-19T13:02:16Z</time>
      </trkpt>
      <trkpt lat="45.18542" lon="0.63808">
        <ele>72.3</ele>
        <time>2014-08-19T13:02:23Z</time>
      </trkpt>
      <trkpt lat="45.18549" lon="0.63861">
        <ele>70.5</ele>
        <time>2014-08-19T13:02:28Z</time>
      </trkpt>
      <trkpt lat="45.18547" lon="0.63935">
        <ele>69.59</ele>
        <time>2014-08-19T13:02:34Z</time>
      </trkpt>
      <trkpt lat="45.18544" lon="0.64001">
        <ele>69</ele>
        <time>2014-08-19T13:02:40Z</time>
      </trkpt>
      <trkpt lat="45.18543" lon="0.64049">
        <ele>69.5</ele>
        <time>2014-08-19T13:02:45Z</time>
      </trkpt>
      <trkpt lat="45.18542" lon="0.64099">
        <ele>70.3</ele>
        <time>2014-08-19T13:02:51Z</time>
      </trkpt>
      <trkpt lat="45.18542" lon="0.64144">
        <ele>70.9</ele>
        <time>2014-08-19T13:02:57Z</time>
      </trkpt>
      <trkpt lat="45.18537" lon="0.64181">
        <ele>70</ele>
        <time>2014-08-19T13:03:03Z</time>
      </trkpt>
      <trkpt lat="45.18534" lon="0.64202">
        <ele>70.69</ele>
        <time>2014-08-19T13:03:06Z</time>
      </trkpt>
      <trkpt lat="45.18529" lon="0.64237">
        <ele>70.69</ele>
        <time>2014-08-19T13:03:11Z</time>
      </trkpt>
      <trkpt lat="45.1852" lon="0.64282">
        <ele>71</ele>
        <time>2014-08-19T13:03:17Z</time>
      </trkpt>
      <trkpt lat="45.18514" lon="0.64341">
        <ele>71.9</ele>
        <time>2014-08-19T13:03:24Z</time>
      </trkpt>
      <trkpt lat="45.18515" lon="0.64392">
        <ele>72.59</ele>
        <time>2014-08-19T13:03:30Z</time>
      </trkpt>
      <trkpt lat="45.18516" lon="0.64443">
        <ele>72.69</ele>
        <time>2014-08-19T13:03:36Z</time>
      </trkpt>
      <trkpt lat="45.18514" lon="0.64486">
        <ele>73</ele>
        <time>2014-08-19T13:03:42Z</time>
      </trkpt>
      <trkpt lat="45.18513" lon="0.64497">
        <ele>73.8</ele>
        <time>2014-08-19T13:03:45Z</time>
      </trkpt>
      <trkpt lat="45.18514" lon="0.64497">
        <ele>73.4</ele>
        <time>2014-08-19T13:03:52Z</time>
      </trkpt>
      <trkpt lat="45.18514" lon="0.64522">
        <ele>73.9</ele>
        <time>2014-08-19T13:04:10Z</time>
      </trkpt>
      <trkpt lat="45.18511" lon="0.6457">
        <ele>72.59</ele>
        <time>2014-08-19T13:04:16Z</time>
      </trkpt>
      <trkpt lat="45.18509" lon="0.64622">
        <ele>72.8</ele>
        <time>2014-08-19T13:04:22Z</time>
      </trkpt>
      <trkpt lat="45.18505" lon="0.64677">
        <ele>72.8</ele>
        <time>2014-08-19T13:04:28Z</time>
      </trkpt>
      <trkpt lat="45.18506" lon="0.64731">
        <ele>72.4</ele>
        <time>2014-08-19T13:04:34Z</time>
      </trkpt>
      <trkpt lat="45.18506" lon="0.64774">
        <ele>71.59</ele>
        <time>2014-08-19T13:04:39Z</time>
      </trkpt>
      <trkpt lat="45.18512" lon="0.64815">
        <ele>71</ele>
        <time>2014-08-19T13:04:44Z</time>
      </trkpt>
      <trkpt lat="45.18529" lon="0.64859">
        <ele>71.19</ele>
        <time>2014-08-19T13:04:50Z</time>
      </trkpt>
      <trkpt lat="45.1854" lon="0.649">
        <ele>71.19</ele>
        <time>2014-08-19T13:04:55Z</time>
      </trkpt>
      <trkpt lat="45.18544" lon="0.64944">
        <ele>71.4</ele>
        <time>2014-08-19T13:05:00Z</time>
      </trkpt>
      <trkpt lat="45.18549" lon="0.64985">
        <ele>71.8</ele>
        <time>2014-08-19T13:05:05Z</time>
      </trkpt>
      <trkpt lat="45.18554" lon="0.65046">
        <ele>72.69</ele>
        <time>2014-08-19T13:05:12Z</time>
      </trkpt>
      <trkpt lat="45.18555" lon="0.65099">
        <ele>72.9</ele>
        <time>2014-08-19T13:05:18Z</time>
      </trkpt>
      <trkpt lat="45.18567" lon="0.65148">
        <ele>72.8</ele>
        <time>2014-08-19T13:05:24Z</time>
      </trkpt>
      <trkpt lat="45.18588" lon="0.65193">
        <ele>72.4</ele>
        <time>2014-08-19T13:05:30Z</time>
      </trkpt>
      <trkpt lat="45.18605" lon="0.65242">
        <ele>72.59</ele>
        <time>2014-08-19T13:05:36Z</time>
      </trkpt>
      <trkpt lat="45.18614" lon="0.65286">
        <ele>72.5</ele>
        <time>2014-08-19T13:05:41Z</time>
      </trkpt>
      <trkpt lat="45.18621" lon="0.65328">
        <ele>72.69</ele>
        <time>2014-08-19T13:05:46Z</time>
      </trkpt>
      <trkpt lat="45.18633" lon="0.65378">
        <ele>72.3</ele>
        <time>2014-08-19T13:05:52Z</time>
      </trkpt>
      <trkpt lat="45.1864" lon="0.65403">
        <ele>72.9</ele>
        <time>2014-08-19T13:05:55Z</time>
      </trkpt>
      <trkpt lat="45.18656" lon="0.65459">
        <ele>72.4</ele>
        <time>2014-08-19T13:06:02Z</time>
      </trkpt>
      <trkpt lat="45.18669" lon="0.6551">
        <ele>71.8</ele>
        <time>2014-08-19T13:06:08Z</time>
      </trkpt>
      <trkpt lat="45.18677" lon="0.65561">
        <ele>71.4</ele>
        <time>2014-08-19T13:06:14Z</time>
      </trkpt>
      <trkpt lat="45.18683" lon="0.65603">
        <ele>71.4</ele>
        <time>2014-08-19T13:06:19Z</time>
      </trkpt>
      <trkpt lat="45.18688" lon="0.65628">
        <ele>71.5</ele>
        <time>2014-08-19T13:06:22Z</time>
      </trkpt>
      <trkpt lat="45.18691" lon="0.65653">
        <ele>71.09</ele>
        <time>2014-08-19T13:06:25Z</time>
      </trkpt>
      <trkpt lat="45.18695" lon="0.65678">
        <ele>71.8</ele>
        <time>2014-08-19T13:06:28Z</time>
      </trkpt>
      <trkpt lat="45.18705" lon="0.65736">
        <ele>72.8</ele>
        <time>2014-08-19T13:06:35Z</time>
      </trkpt>
      <trkpt lat="45.18714" lon="0.65783">
        <ele>72.4</ele>
        <time>2014-08-19T13:06:41Z</time>
      </trkpt>
      <trkpt lat="45.18722" lon="0.65832">
        <ele>72.59</ele>
        <time>2014-08-19T13:06:47Z</time>
      </trkpt>
      <trkpt lat="45.18729" lon="0.65873">
        <ele>72.8</ele>
        <time>2014-08-19T13:06:52Z</time>
      </trkpt>
      <trkpt lat="45.18742" lon="0.6593">
        <ele>72.59</ele>
        <time>2014-08-19T13:06:59Z</time>
      </trkpt>
      <trkpt lat="45.18752" lon="0.65981">
        <ele>72.59</ele>
        <time>2014-08-19T13:07:05Z</time>
      </trkpt>
      <trkpt lat="45.18758" lon="0.66012">
        <ele>72.3</ele>
        <time>2014-08-19T13:07:09Z</time>
      </trkpt>
      <trkpt lat="45.18759" lon="0.66035">
        <ele>72.69</ele>
        <time>2014-08-19T13:07:12Z</time>
      </trkpt>
      <trkpt lat="45.18752" lon="0.66055">
        <ele>73.19</ele>
        <time>2014-08-19T13:07:15Z</time>
      </trkpt>
      <trkpt lat="45.18761" lon="0.66092">
        <ele>74.5</ele>
        <time>2014-08-19T13:07:21Z</time>
      </trkpt>
      <trkpt lat="45.18778" lon="0.66117">
        <ele>74.59</ele>
        <time>2014-08-19T13:07:28Z</time>
      </trkpt>
      <trkpt lat="45.18801" lon="0.66153">
        <ele>72</ele>
        <time>2014-08-19T13:07:37Z</time>
      </trkpt>
      <trkpt lat="45.18819" lon="0.66166">
        <ele>72.19</ele>
        <time>2014-08-19T13:07:43Z</time>
      </trkpt>
      <trkpt lat="45.18845" lon="0.66186">
        <ele>75</ele>
        <time>2014-08-19T13:07:52Z</time>
      </trkpt>
      <trkpt lat="45.18869" lon="0.66204">
        <ele>77</ele>
        <time>2014-08-19T13:07:58Z</time>
      </trkpt>
      <trkpt lat="45.18878" lon="0.66239">
        <ele>79.8</ele>
        <time>2014-08-19T13:08:05Z</time>
      </trkpt>
      <trkpt lat="45.18861" lon="0.66288">
        <ele>78.3</ele>
        <time>2014-08-19T13:08:11Z</time>
      </trkpt>
      <trkpt lat="45.18856" lon="0.6633">
        <ele>76.8</ele>
        <time>2014-08-19T13:08:16Z</time>
      </trkpt>
      <trkpt lat="45.18844" lon="0.66373">
        <ele>76</ele>
        <time>2014-08-19T13:08:21Z</time>
      </trkpt>
      <trkpt lat="45.18825" lon="0.66407">
        <ele>71.3</ele>
        <time>2014-08-19T13:08:26Z</time>
      </trkpt>
      <trkpt lat="45.18816" lon="0.66457">
        <ele>70.69</ele>
        <time>2014-08-19T13:08:32Z</time>
      </trkpt>
      <trkpt lat="45.18821" lon="0.66503">
        <ele>69.5</ele>
        <time>2014-08-19T13:08:37Z</time>
      </trkpt>
      <trkpt lat="45.18823" lon="0.66546">
        <ele>73.59</ele>
        <time>2014-08-19T13:08:42Z</time>
      </trkpt>
      <trkpt lat="45.18826" lon="0.66588">
        <ele>75.3</ele>
        <time>2014-08-19T13:08:47Z</time>
      </trkpt>
      <trkpt lat="45.1883" lon="0.66637">
        <ele>74.4</ele>
        <time>2014-08-19T13:08:53Z</time>
      </trkpt>
      <trkpt lat="45.18833" lon="0.66677">
        <ele>75</ele>
        <time>2014-08-19T13:08:58Z</time>
      </trkpt>
      <trkpt lat="45.1884" lon="0.66734">
        <ele>75.5</ele>
        <time>2014-08-19T13:09:05Z</time>
      </trkpt>
      <trkpt lat="45.18844" lon="0.66784">
        <ele>75.8</ele>
        <time>2014-08-19T13:09:11Z</time>
      </trkpt>
      <trkpt lat="45.18849" lon="0.66834">
        <ele>75.69</ele>
        <time>2014-08-19T13:09:17Z</time>
      </trkpt>
      <trkpt lat="45.18852" lon="0.66883">
        <ele>75.19</ele>
        <time>2014-08-19T13:09:23Z</time>
      </trkpt>
      <trkpt lat="45.18852" lon="0.66924">
        <ele>72</ele>
        <time>2014-08-19T13:09:28Z</time>
      </trkpt>
      <trkpt lat="45.18862" lon="0.66963">
        <ele>71.9</ele>
        <time>2014-08-19T13:09:35Z</time>
      </trkpt>
      <trkpt lat="45.18865" lon="0.67011">
        <ele>68.3</ele>
        <time>2014-08-19T13:09:40Z</time>
      </trkpt>
      <trkpt lat="45.1887" lon="0.67071">
        <ele>68</ele>
        <time>2014-08-19T13:09:46Z</time>
      </trkpt>
      <trkpt lat="45.18877" lon="0.67127">
        <ele>69.59</ele>
        <time>2014-08-19T13:09:52Z</time>
      </trkpt>
      <trkpt lat="45.1889" lon="0.6718">
        <ele>69.4</ele>
        <time>2014-08-19T13:09:58Z</time>
      </trkpt>
      <trkpt lat="45.18903" lon="0.67228">
        <ele>69.4</ele>
        <time>2014-08-19T13:10:04Z</time>
      </trkpt>
      <trkpt lat="45.18913" lon="0.6727">
        <ele>71.3</ele>
        <time>2014-08-19T13:10:09Z</time>
      </trkpt>
      <trkpt lat="45.1893" lon="0.67318">
        <ele>68.9</ele>
        <time>2014-08-19T13:10:15Z</time>
      </trkpt>
      <trkpt lat="45.18942" lon="0.67355">
        <ele>67.5</ele>
        <time>2014-08-19T13:10:19Z</time>
      </trkpt>
      <trkpt lat="45.18962" lon="0.67402">
        <ele>69</ele>
        <time>2014-08-19T13:10:25Z</time>
      </trkpt>
      <trkpt lat="45.18982" lon="0.67457">
        <ele>71.19</ele>
        <time>2014-08-19T13:10:32Z</time>
      </trkpt>
      <trkpt lat="45.19" lon="0.67505">
        <ele>71.19</ele>
        <time>2014-08-19T13:10:39Z</time>
      </trkpt>
      <trkpt lat="45.19027" lon="0.67536">
        <ele>72.19</ele>
        <time>2014-08-19T13:10:45Z</time>
      </trkpt>
      <trkpt lat="45.1906" lon="0.67547">
        <ele>72.59</ele>
        <time>2014-08-19T13:10:51Z</time>
      </trkpt>
      <trkpt lat="45.19095" lon="0.67548">
        <ele>69</ele>
        <time>2014-08-19T13:10:57Z</time>
      </trkpt>
      <trkpt lat="45.19124" lon="0.6755">
        <ele>70.69</ele>
        <time>2014-08-19T13:11:02Z</time>
      </trkpt>
      <trkpt lat="45.19158" lon="0.67557">
        <ele>73</ele>
        <time>2014-08-19T13:11:08Z</time>
      </trkpt>
      <trkpt lat="45.19189" lon="0.67558">
        <ele>74.8</ele>
        <time>2014-08-19T13:11:14Z</time>
      </trkpt>
      <trkpt lat="45.19205" lon="0.67557">
        <ele>74.59</ele>
        <time>2014-08-19T13:11:17Z</time>
      </trkpt>
      <trkpt lat="45.19235" lon="0.67557">
        <ele>73.9</ele>
        <time>2014-08-19T13:11:23Z</time>
      </trkpt>
      <trkpt lat="45.19255" lon="0.67574">
        <ele>74</ele>
        <time>2014-08-19T13:11:29Z</time>
      </trkpt>
      <trkpt lat="45.19261" lon="0.67608">
        <ele>73.9</ele>
        <time>2014-08-19T13:11:34Z</time>
      </trkpt>
      <trkpt lat="45.19259" lon="0.67657">
        <ele>73.59</ele>
        <time>2014-08-19T13:11:41Z</time>
      </trkpt>
      <trkpt lat="45.1926" lon="0.67698">
        <ele>72.5</ele>
        <time>2014-08-19T13:11:46Z</time>
      </trkpt>
      <trkpt lat="45.19261" lon="0.67731">
        <ele>72.5</ele>
        <time>2014-08-19T13:11:50Z</time>
      </trkpt>
      <trkpt lat="45.19261" lon="0.67777">
        <ele>73.09</ele>
        <time>2014-08-19T13:11:56Z</time>
      </trkpt>
      <trkpt lat="45.1926" lon="0.67824">
        <ele>73.9</ele>
        <time>2014-08-19T13:12:02Z</time>
      </trkpt>
      <trkpt lat="45.19268" lon="0.67859">
        <ele>73.9</ele>
        <time>2014-08-19T13:12:07Z</time>
      </trkpt>
      <trkpt lat="45.19288" lon="0.67895">
        <ele>73.4</ele>
        <time>2014-08-19T13:12:13Z</time>
      </trkpt>
      <trkpt lat="45.19303" lon="0.6792">
        <ele>73.09</ele>
        <time>2014-08-19T13:12:17Z</time>
      </trkpt>
      <trkpt lat="45.19324" lon="0.67957">
        <ele>72.59</ele>
        <time>2014-08-19T13:12:23Z</time>
      </trkpt>
      <trkpt lat="45.19342" lon="0.67987">
        <ele>72</ele>
        <time>2014-08-19T13:12:28Z</time>
      </trkpt>
      <trkpt lat="45.19369" lon="0.68014">
        <ele>72</ele>
        <time>2014-08-19T13:12:34Z</time>
      </trkpt>
      <trkpt lat="45.1939" lon="0.6804">
        <ele>71.9</ele>
        <time>2014-08-19T13:12:39Z</time>
      </trkpt>
      <trkpt lat="45.19413" lon="0.68066">
        <ele>71.5</ele>
        <time>2014-08-19T13:12:44Z</time>
      </trkpt>
      <trkpt lat="45.19436" lon="0.68091">
        <ele>72.19</ele>
        <time>2014-08-19T13:12:49Z</time>
      </trkpt>
      <trkpt lat="45.19465" lon="0.68117">
        <ele>73.09</ele>
        <time>2014-08-19T13:12:55Z</time>
      </trkpt>
      <trkpt lat="45.1949" lon="0.68135">
        <ele>73.4</ele>
        <time>2014-08-19T13:13:00Z</time>
      </trkpt>
      <trkpt lat="45.19519" lon="0.68163">
        <ele>73.9</ele>
        <time>2014-08-19T13:13:06Z</time>
      </trkpt>
      <trkpt lat="45.19542" lon="0.68187">
        <ele>74.69</ele>
        <time>2014-08-19T13:13:11Z</time>
      </trkpt>
      <trkpt lat="45.19566" lon="0.68212">
        <ele>75.69</ele>
        <time>2014-08-19T13:13:16Z</time>
      </trkpt>
      <trkpt lat="45.19596" lon="0.68238">
        <ele>75.09</ele>
        <time>2014-08-19T13:13:22Z</time>
      </trkpt>
      <trkpt lat="45.19619" lon="0.68263">
        <ele>74.5</ele>
        <time>2014-08-19T13:13:27Z</time>
      </trkpt>
      <trkpt lat="45.19633" lon="0.68279">
        <ele>75.9</ele>
        <time>2014-08-19T13:13:30Z</time>
      </trkpt>
      <trkpt lat="45.19656" lon="0.68305">
        <ele>75.4</ele>
        <time>2014-08-19T13:13:35Z</time>
      </trkpt>
      <trkpt lat="45.19685" lon="0.68333">
        <ele>74.9</ele>
        <time>2014-08-19T13:13:41Z</time>
      </trkpt>
      <trkpt lat="45.19714" lon="0.68361">
        <ele>74.3</ele>
        <time>2014-08-19T13:13:47Z</time>
      </trkpt>
      <trkpt lat="45.19746" lon="0.68387">
        <ele>74</ele>
        <time>2014-08-19T13:13:53Z</time>
      </trkpt>
      <trkpt lat="45.19776" lon="0.68412">
        <ele>75.69</ele>
        <time>2014-08-19T13:13:59Z</time>
      </trkpt>
      <trkpt lat="45.19811" lon="0.68446">
        <ele>74.69</ele>
        <time>2014-08-19T13:14:06Z</time>
      </trkpt>
      <trkpt lat="45.19837" lon="0.68468">
        <ele>75.09</ele>
        <time>2014-08-19T13:14:11Z</time>
      </trkpt>
      <trkpt lat="45.19868" lon="0.68495">
        <ele>74.69</ele>
        <time>2014-08-19T13:14:17Z</time>
      </trkpt>
      <trkpt lat="45.19884" lon="0.68507">
        <ele>74.8</ele>
        <time>2014-08-19T13:14:20Z</time>
      </trkpt>
      <trkpt lat="45.19913" lon="0.68532">
        <ele>75.09</ele>
        <time>2014-08-19T13:14:26Z</time>
      </trkpt>
      <trkpt lat="45.19928" lon="0.68518">
        <ele>76.69</ele>
        <time>2014-08-19T13:14:32Z</time>
      </trkpt>
      <trkpt lat="45.19944" lon="0.68488">
        <ele>76.5</ele>
        <time>2014-08-19T13:14:39Z</time>
      </trkpt>
      <trkpt lat="45.19953" lon="0.6848">
        <ele>77.5</ele>
        <time>2014-08-19T13:14:44Z</time>
      </trkpt>
      <trkpt lat="45.19981" lon="0.68498">
        <ele>81.8</ele>
        <time>2014-08-19T13:14:55Z</time>
      </trkpt>
      <trkpt lat="45.19997" lon="0.68493">
        <ele>83.1</ele>
        <time>2014-08-19T13:15:00Z</time>
      </trkpt>
      <trkpt lat="45.20016" lon="0.68486">
        <ele>86.69</ele>
        <time>2014-08-19T13:15:07Z</time>
      </trkpt>
      <trkpt lat="45.2004" lon="0.68476">
        <ele>88.3</ele>
        <time>2014-08-19T13:15:15Z</time>
      </trkpt>
      <trkpt lat="45.2006" lon="0.68469">
        <ele>88.19</ele>
        <time>2014-08-19T13:15:22Z</time>
      </trkpt>
      <trkpt lat="45.20073" lon="0.68482">
        <ele>89.19</ele>
        <time>2014-08-19T13:15:30Z</time>
      </trkpt>
      <trkpt lat="45.20087" lon="0.6852">
        <ele>88.1</ele>
        <time>2014-08-19T13:15:36Z</time>
      </trkpt>
      <trkpt lat="45.20107" lon="0.68563">
        <ele>85.89</ele>
        <time>2014-08-19T13:15:42Z</time>
      </trkpt>
      <trkpt lat="45.20125" lon="0.68611">
        <ele>85.39</ele>
        <time>2014-08-19T13:15:48Z</time>
      </trkpt>
      <trkpt lat="45.20145" lon="0.6866">
        <ele>81.8</ele>
        <time>2014-08-19T13:15:54Z</time>
      </trkpt>
      <trkpt lat="45.20161" lon="0.68707">
        <ele>81.89</ele>
        <time>2014-08-19T13:15:59Z</time>
      </trkpt>
      <trkpt lat="45.20176" lon="0.68765">
        <ele>82.69</ele>
        <time>2014-08-19T13:16:05Z</time>
      </trkpt>
      <trkpt lat="45.20185" lon="0.6881">
        <ele>81.69</ele>
        <time>2014-08-19T13:16:10Z</time>
      </trkpt>
      <trkpt lat="45.20191" lon="0.68864">
        <ele>80.6</ele>
        <time>2014-08-19T13:16:16Z</time>
      </trkpt>
      <trkpt lat="45.20192" lon="0.68919">
        <ele>79.6</ele>
        <time>2014-08-19T13:16:22Z</time>
      </trkpt>
      <trkpt lat="45.20192" lon="0.68974">
        <ele>79.8</ele>
        <time>2014-08-19T13:16:28Z</time>
      </trkpt>
      <trkpt lat="45.20186" lon="0.69027">
        <ele>81</ele>
        <time>2014-08-19T13:16:34Z</time>
      </trkpt>
      <trkpt lat="45.2018" lon="0.69081">
        <ele>80.1</ele>
        <time>2014-08-19T13:16:40Z</time>
      </trkpt>
      <trkpt lat="45.20174" lon="0.69134">
        <ele>80.89</ele>
        <time>2014-08-19T13:16:46Z</time>
      </trkpt>
      <trkpt lat="45.20166" lon="0.69185">
        <ele>79.6</ele>
        <time>2014-08-19T13:16:52Z</time>
      </trkpt>
      <trkpt lat="45.20155" lon="0.69223">
        <ele>79.3</ele>
        <time>2014-08-19T13:16:57Z</time>
      </trkpt>
      <trkpt lat="45.20124" lon="0.69244">
        <ele>79.5</ele>
        <time>2014-08-19T13:17:03Z</time>
      </trkpt>
      <trkpt lat="45.2011" lon="0.69256">
        <ele>79.69</ele>
        <time>2014-08-19T13:17:06Z</time>
      </trkpt>
      <trkpt lat="45.20084" lon="0.6928">
        <ele>80.19</ele>
        <time>2014-08-19T13:17:11Z</time>
      </trkpt>
      <trkpt lat="45.20057" lon="0.69311">
        <ele>80.89</ele>
        <time>2014-08-19T13:17:17Z</time>
      </trkpt>
      <trkpt lat="45.20031" lon="0.69342">
        <ele>81.39</ele>
        <time>2014-08-19T13:17:23Z</time>
      </trkpt>
      <trkpt lat="45.20004" lon="0.6938">
        <ele>81.5</ele>
        <time>2014-08-19T13:17:29Z</time>
      </trkpt>
      <trkpt lat="45.1998" lon="0.69418">
        <ele>78.59</ele>
        <time>2014-08-19T13:17:35Z</time>
      </trkpt>
      <trkpt lat="45.19956" lon="0.69437">
        <ele>76.4</ele>
        <time>2014-08-19T13:17:40Z</time>
      </trkpt>
      <trkpt lat="45.19932" lon="0.69472">
        <ele>75.4</ele>
        <time>2014-08-19T13:17:46Z</time>
      </trkpt>
      <trkpt lat="45.19905" lon="0.69491">
        <ele>74.69</ele>
        <time>2014-08-19T13:17:52Z</time>
      </trkpt>
      <trkpt lat="45.1988" lon="0.69507">
        <ele>74.3</ele>
        <time>2014-08-19T13:17:57Z</time>
      </trkpt>
      <trkpt lat="45.19861" lon="0.69525">
        <ele>75.4</ele>
        <time>2014-08-19T13:18:01Z</time>
      </trkpt>
      <trkpt lat="45.19844" lon="0.6954">
        <ele>76.69</ele>
        <time>2014-08-19T13:18:04Z</time>
      </trkpt>
      <trkpt lat="45.1981" lon="0.69562">
        <ele>76.09</ele>
        <time>2014-08-19T13:18:10Z</time>
      </trkpt>
      <trkpt lat="45.1978" lon="0.69577">
        <ele>77.3</ele>
        <time>2014-08-19T13:18:15Z</time>
      </trkpt>
      <trkpt lat="45.19742" lon="0.69596">
        <ele>76.5</ele>
        <time>2014-08-19T13:18:22Z</time>
      </trkpt>
      <trkpt lat="45.19709" lon="0.69611">
        <ele>76.8</ele>
        <time>2014-08-19T13:18:28Z</time>
      </trkpt>
      <trkpt lat="45.19678" lon="0.69628">
        <ele>77.4</ele>
        <time>2014-08-19T13:18:34Z</time>
      </trkpt>
      <trkpt lat="45.19647" lon="0.69646">
        <ele>77.59</ele>
        <time>2014-08-19T13:18:40Z</time>
      </trkpt>
      <trkpt lat="45.19614" lon="0.69665">
        <ele>78.3</ele>
        <time>2014-08-19T13:18:47Z</time>
      </trkpt>
      <trkpt lat="45.19588" lon="0.69678">
        <ele>77.8</ele>
        <time>2014-08-19T13:18:52Z</time>
      </trkpt>
      <trkpt lat="45.19566" lon="0.69685">
        <ele>79.1</ele>
        <time>2014-08-19T13:18:56Z</time>
      </trkpt>
      <trkpt lat="45.19551" lon="0.69692">
        <ele>78.8</ele>
        <time>2014-08-19T13:18:59Z</time>
      </trkpt>
      <trkpt lat="45.19525" lon="0.69704">
        <ele>79.1</ele>
        <time>2014-08-19T13:19:04Z</time>
      </trkpt>
      <trkpt lat="45.195" lon="0.69717">
        <ele>78.09</ele>
        <time>2014-08-19T13:19:09Z</time>
      </trkpt>
      <trkpt lat="45.19471" lon="0.69732">
        <ele>77.8</ele>
        <time>2014-08-19T13:19:15Z</time>
      </trkpt>
      <trkpt lat="45.19445" lon="0.69748">
        <ele>73.4</ele>
        <time>2014-08-19T13:19:21Z</time>
      </trkpt>
      <trkpt lat="45.19414" lon="0.69759">
        <ele>74.5</ele>
        <time>2014-08-19T13:19:27Z</time>
      </trkpt>
      <trkpt lat="45.19386" lon="0.6977">
        <ele>75.4</ele>
        <time>2014-08-19T13:19:32Z</time>
      </trkpt>
      <trkpt lat="45.19359" lon="0.69781">
        <ele>78.5</ele>
        <time>2014-08-19T13:19:37Z</time>
      </trkpt>
      <trkpt lat="45.19326" lon="0.69791">
        <ele>77</ele>
        <time>2014-08-19T13:19:43Z</time>
      </trkpt>
      <trkpt lat="45.19297" lon="0.69803">
        <ele>71</ele>
        <time>2014-08-19T13:19:49Z</time>
      </trkpt>
      <trkpt lat="45.19267" lon="0.69814">
        <ele>71.8</ele>
        <time>2014-08-19T13:19:54Z</time>
      </trkpt>
      <trkpt lat="45.19239" lon="0.69825">
        <ele>73.9</ele>
        <time>2014-08-19T13:20:00Z</time>
      </trkpt>
      <trkpt lat="45.19216" lon="0.69836">
        <ele>75.9</ele>
        <time>2014-08-19T13:20:05Z</time>
      </trkpt>
      <trkpt lat="45.19189" lon="0.69845">
        <ele>76.5</ele>
        <time>2014-08-19T13:20:10Z</time>
      </trkpt>
      <trkpt lat="45.19158" lon="0.69857">
        <ele>77.5</ele>
        <time>2014-08-19T13:20:16Z</time>
      </trkpt>
      <trkpt lat="45.19133" lon="0.69868">
        <ele>75.09</ele>
        <time>2014-08-19T13:20:21Z</time>
      </trkpt>
      <trkpt lat="45.19101" lon="0.69881">
        <ele>72.8</ele>
        <time>2014-08-19T13:20:27Z</time>
      </trkpt>
      <trkpt lat="45.19075" lon="0.69889">
        <ele>75.3</ele>
        <time>2014-08-19T13:20:32Z</time>
      </trkpt>
      <trkpt lat="45.1905" lon="0.69899">
        <ele>76.59</ele>
        <time>2014-08-19T13:20:37Z</time>
      </trkpt>
      <trkpt lat="45.19017" lon="0.69912">
        <ele>77.3</ele>
        <time>2014-08-19T13:20:43Z</time>
      </trkpt>
      <trkpt lat="45.18991" lon="0.69923">
        <ele>75.3</ele>
        <time>2014-08-19T13:20:48Z</time>
      </trkpt>
      <trkpt lat="45.18959" lon="0.69933">
        <ele>75.8</ele>
        <time>2014-08-19T13:20:54Z</time>
      </trkpt>
      <trkpt lat="45.18928" lon="0.69944">
        <ele>76</ele>
        <time>2014-08-19T13:21:00Z</time>
      </trkpt>
      <trkpt lat="45.18903" lon="0.69955">
        <ele>76.69</ele>
        <time>2014-08-19T13:21:05Z</time>
      </trkpt>
      <trkpt lat="45.18872" lon="0.69965">
        <ele>77.9</ele>
        <time>2014-08-19T13:21:11Z</time>
      </trkpt>
      <trkpt lat="45.18843" lon="0.69975">
        <ele>75.8</ele>
        <time>2014-08-19T13:21:17Z</time>
      </trkpt>
      <trkpt lat="45.1881" lon="0.69982">
        <ele>79.8</ele>
        <time>2014-08-19T13:21:23Z</time>
      </trkpt>
      <trkpt lat="45.18774" lon="0.6999">
        <ele>80</ele>
        <time>2014-08-19T13:21:29Z</time>
      </trkpt>
      <trkpt lat="45.18744" lon="0.69998">
        <ele>81</ele>
        <time>2014-08-19T13:21:35Z</time>
      </trkpt>
      <trkpt lat="45.18712" lon="0.70003">
        <ele>82.6</ele>
        <time>2014-08-19T13:21:41Z</time>
      </trkpt>
      <trkpt lat="45.18685" lon="0.70008">
        <ele>81.3</ele>
        <time>2014-08-19T13:21:46Z</time>
      </trkpt>
      <trkpt lat="45.18665" lon="0.70014">
        <ele>84.89</ele>
        <time>2014-08-19T13:21:50Z</time>
      </trkpt>
      <trkpt lat="45.18645" lon="0.70022">
        <ele>82.89</ele>
        <time>2014-08-19T13:21:54Z</time>
      </trkpt>
      <trkpt lat="45.18622" lon="0.70034">
        <ele>82.39</ele>
        <time>2014-08-19T13:21:59Z</time>
      </trkpt>
      <trkpt lat="45.18596" lon="0.70054">
        <ele>79.69</ele>
        <time>2014-08-19T13:22:05Z</time>
      </trkpt>
      <trkpt lat="45.18583" lon="0.70065">
        <ele>81.69</ele>
        <time>2014-08-19T13:22:08Z</time>
      </trkpt>
      <trkpt lat="45.18566" lon="0.70081">
        <ele>82.6</ele>
        <time>2014-08-19T13:22:12Z</time>
      </trkpt>
      <trkpt lat="45.18543" lon="0.70109">
        <ele>84.19</ele>
        <time>2014-08-19T13:22:18Z</time>
      </trkpt>
      <trkpt lat="45.18525" lon="0.70147">
        <ele>82.89</ele>
        <time>2014-08-19T13:22:24Z</time>
      </trkpt>
      <trkpt lat="45.18514" lon="0.70182">
        <ele>84.1</ele>
        <time>2014-08-19T13:22:30Z</time>
      </trkpt>
      <trkpt lat="45.18498" lon="0.70217">
        <ele>85</ele>
        <time>2014-08-19T13:22:36Z</time>
      </trkpt>
      <trkpt lat="45.18485" lon="0.70244">
        <ele>83.39</ele>
        <time>2014-08-19T13:22:41Z</time>
      </trkpt>
      <trkpt lat="45.1847" lon="0.70263">
        <ele>85.19</ele>
        <time>2014-08-19T13:22:45Z</time>
      </trkpt>
      <trkpt lat="45.1845" lon="0.70297">
        <ele>85.6</ele>
        <time>2014-08-19T13:22:51Z</time>
      </trkpt>
      <trkpt lat="45.18432" lon="0.70334">
        <ele>75.59</ele>
        <time>2014-08-19T13:22:58Z</time>
      </trkpt>
      <trkpt lat="45.18416" lon="0.70356">
        <ele>75.69</ele>
        <time>2014-08-19T13:23:03Z</time>
      </trkpt>
      <trkpt lat="45.18394" lon="0.70379">
        <ele>77.9</ele>
        <time>2014-08-19T13:23:09Z</time>
      </trkpt>
      <trkpt lat="45.18365" lon="0.70386">
        <ele>78.19</ele>
        <time>2014-08-19T13:23:16Z</time>
      </trkpt>
      <trkpt lat="45.18346" lon="0.70354">
        <ele>79.19</ele>
        <time>2014-08-19T13:23:24Z</time>
      </trkpt>
      <trkpt lat="45.18322" lon="0.70375">
        <ele>81.19</ele>
        <time>2014-08-19T13:23:31Z</time>
      </trkpt>
      <trkpt lat="45.18303" lon="0.70401">
        <ele>83</ele>
        <time>2014-08-19T13:23:37Z</time>
      </trkpt>
      <trkpt lat="45.18288" lon="0.70416">
        <ele>86</ele>
        <time>2014-08-19T13:23:41Z</time>
      </trkpt>
      <trkpt lat="45.18268" lon="0.70432">
        <ele>85.89</ele>
        <time>2014-08-19T13:23:46Z</time>
      </trkpt>
      <trkpt lat="45.18245" lon="0.7045">
        <ele>88.6</ele>
        <time>2014-08-19T13:23:52Z</time>
      </trkpt>
      <trkpt lat="45.18227" lon="0.70464">
        <ele>87.19</ele>
        <time>2014-08-19T13:23:57Z</time>
      </trkpt>
      <trkpt lat="45.18205" lon="0.70483">
        <ele>86</ele>
        <time>2014-08-19T13:24:03Z</time>
      </trkpt>
      <trkpt lat="45.18191" lon="0.70496">
        <ele>85.3</ele>
        <time>2014-08-19T13:24:07Z</time>
      </trkpt>
      <trkpt lat="45.18162" lon="0.70519">
        <ele>86.3</ele>
        <time>2014-08-19T13:24:14Z</time>
      </trkpt>
      <trkpt lat="45.18138" lon="0.70539">
        <ele>86.8</ele>
        <time>2014-08-19T13:24:20Z</time>
      </trkpt>
      <trkpt lat="45.18122" lon="0.70553">
        <ele>87.5</ele>
        <time>2014-08-19T13:24:24Z</time>
      </trkpt>
      <trkpt lat="45.18095" lon="0.70576">
        <ele>87.39</ele>
        <time>2014-08-19T13:24:31Z</time>
      </trkpt>
      <trkpt lat="45.18071" lon="0.70596">
        <ele>86</ele>
        <time>2014-08-19T13:24:37Z</time>
      </trkpt>
      <trkpt lat="45.18048" lon="0.70618">
        <ele>84.5</ele>
        <time>2014-08-19T13:24:44Z</time>
      </trkpt>
      <trkpt lat="45.18023" lon="0.70633">
        <ele>84.1</ele>
        <time>2014-08-19T13:24:50Z</time>
      </trkpt>
      <trkpt lat="45.18004" lon="0.70651">
        <ele>82.39</ele>
        <time>2014-08-19T13:24:55Z</time>
      </trkpt>
      <trkpt lat="45.17982" lon="0.70674">
        <ele>80.3</ele>
        <time>2014-08-19T13:25:01Z</time>
      </trkpt>
      <trkpt lat="45.1796" lon="0.70688">
        <ele>80.8</ele>
        <time>2014-08-19T13:25:06Z</time>
      </trkpt>
      <trkpt lat="45.17935" lon="0.70709">
        <ele>81.19</ele>
        <time>2014-08-19T13:25:12Z</time>
      </trkpt>
      <trkpt lat="45.17916" lon="0.70726">
        <ele>81.19</ele>
        <time>2014-08-19T13:25:17Z</time>
      </trkpt>
      <trkpt lat="45.17892" lon="0.70745">
        <ele>80.8</ele>
        <time>2014-08-19T13:25:23Z</time>
      </trkpt>
      <trkpt lat="45.17873" lon="0.70762">
        <ele>82.39</ele>
        <time>2014-08-19T13:25:28Z</time>
      </trkpt>
      <trkpt lat="45.17852" lon="0.7078">
        <ele>82.19</ele>
        <time>2014-08-19T13:25:34Z</time>
      </trkpt>
      <trkpt lat="45.1783" lon="0.70799">
        <ele>81.39</ele>
        <time>2014-08-19T13:25:40Z</time>
      </trkpt>
      <trkpt lat="45.17812" lon="0.70813">
        <ele>81</ele>
        <time>2014-08-19T13:25:45Z</time>
      </trkpt>
      <trkpt lat="45.17789" lon="0.70832">
        <ele>81.5</ele>
        <time>2014-08-19T13:25:51Z</time>
      </trkpt>
      <trkpt lat="45.17767" lon="0.70852">
        <ele>81.6</ele>
        <time>2014-08-19T13:25:57Z</time>
      </trkpt>
      <trkpt lat="45.17747" lon="0.70869">
        <ele>82.19</ele>
        <time>2014-08-19T13:26:02Z</time>
      </trkpt>
      <trkpt lat="45.17727" lon="0.70888">
        <ele>78.69</ele>
        <time>2014-08-19T13:26:08Z</time>
      </trkpt>
      <trkpt lat="45.17709" lon="0.70909">
        <ele>79.1</ele>
        <time>2014-08-19T13:26:13Z</time>
      </trkpt>
      <trkpt lat="45.17689" lon="0.70939">
        <ele>79.89</ele>
        <time>2014-08-19T13:26:19Z</time>
      </trkpt>
      <trkpt lat="45.17669" lon="0.7097">
        <ele>81</ele>
        <time>2014-08-19T13:26:25Z</time>
      </trkpt>
      <trkpt lat="45.17656" lon="0.70996">
        <ele>81.39</ele>
        <time>2014-08-19T13:26:30Z</time>
      </trkpt>
      <trkpt lat="45.17643" lon="0.7103">
        <ele>80.89</ele>
        <time>2014-08-19T13:26:36Z</time>
      </trkpt>
      <trkpt lat="45.17629" lon="0.71065">
        <ele>81</ele>
        <time>2014-08-19T13:26:42Z</time>
      </trkpt>
      <trkpt lat="45.17615" lon="0.71107">
        <ele>80.89</ele>
        <time>2014-08-19T13:26:49Z</time>
      </trkpt>
      <trkpt lat="45.17606" lon="0.71143">
        <ele>82.8</ele>
        <time>2014-08-19T13:26:55Z</time>
      </trkpt>
      <trkpt lat="45.17598" lon="0.71173">
        <ele>83.1</ele>
        <time>2014-08-19T13:27:00Z</time>
      </trkpt>
      <trkpt lat="45.17588" lon="0.71208">
        <ele>82.6</ele>
        <time>2014-08-19T13:27:06Z</time>
      </trkpt>
      <trkpt lat="45.17581" lon="0.71232">
        <ele>82.69</ele>
        <time>2014-08-19T13:27:10Z</time>
      </trkpt>
      <trkpt lat="45.1757" lon="0.71268">
        <ele>83.69</ele>
        <time>2014-08-19T13:27:16Z</time>
      </trkpt>
      <trkpt lat="45.17559" lon="0.7131">
        <ele>85.39</ele>
        <time>2014-08-19T13:27:23Z</time>
      </trkpt>
      <trkpt lat="45.17548" lon="0.71344">
        <ele>83.5</ele>
        <time>2014-08-19T13:27:29Z</time>
      </trkpt>
      <trkpt lat="45.17539" lon="0.71374">
        <ele>86.89</ele>
        <time>2014-08-19T13:27:34Z</time>
      </trkpt>
      <trkpt lat="45.17528" lon="0.71412">
        <ele>85.69</ele>
        <time>2014-08-19T13:27:41Z</time>
      </trkpt>
      <trkpt lat="45.17518" lon="0.71451">
        <ele>83</ele>
        <time>2014-08-19T13:27:48Z</time>
      </trkpt>
      <trkpt lat="45.17508" lon="0.71496">
        <ele>80.69</ele>
        <time>2014-08-19T13:27:56Z</time>
      </trkpt>
      <trkpt lat="45.17498" lon="0.71532">
        <ele>77.9</ele>
        <time>2014-08-19T13:28:03Z</time>
      </trkpt>
      <trkpt lat="45.17496" lon="0.71557">
        <ele>75.8</ele>
        <time>2014-08-19T13:28:08Z</time>
      </trkpt>
      <trkpt lat="45.17493" lon="0.71581">
        <ele>74.8</ele>
        <time>2014-08-19T13:28:13Z</time>
      </trkpt>
      <trkpt lat="45.1749" lon="0.71636">
        <ele>78.09</ele>
        <time>2014-08-19T13:28:22Z</time>
      </trkpt>
      <trkpt lat="45.17493" lon="0.71674">
        <ele>79.3</ele>
        <time>2014-08-19T13:28:28Z</time>
      </trkpt>
      <trkpt lat="45.17496" lon="0.71694">
        <ele>79.39</ele>
        <time>2014-08-19T13:28:31Z</time>
      </trkpt>
      <trkpt lat="45.17498" lon="0.71718">
        <ele>80.5</ele>
        <time>2014-08-19T13:28:35Z</time>
      </trkpt>
      <trkpt lat="45.175" lon="0.71736">
        <ele>80.19</ele>
        <time>2014-08-19T13:28:38Z</time>
      </trkpt>
      <trkpt lat="45.17506" lon="0.7178">
        <ele>80.8</ele>
        <time>2014-08-19T13:28:45Z</time>
      </trkpt>
      <trkpt lat="45.17508" lon="0.71809">
        <ele>82.19</ele>
        <time>2014-08-19T13:28:50Z</time>
      </trkpt>
      <trkpt lat="45.17512" lon="0.71843">
        <ele>82.5</ele>
        <time>2014-08-19T13:28:56Z</time>
      </trkpt>
      <trkpt lat="45.17515" lon="0.71877">
        <ele>81.8</ele>
        <time>2014-08-19T13:29:01Z</time>
      </trkpt>
      <trkpt lat="45.17522" lon="0.71921">
        <ele>82.39</ele>
        <time>2014-08-19T13:29:08Z</time>
      </trkpt>
      <trkpt lat="45.17529" lon="0.71956">
        <ele>82.69</ele>
        <time>2014-08-19T13:29:14Z</time>
      </trkpt>
      <trkpt lat="45.17541" lon="0.71987">
        <ele>82.6</ele>
        <time>2014-08-19T13:29:20Z</time>
      </trkpt>
      <trkpt lat="45.17555" lon="0.72015">
        <ele>83.39</ele>
        <time>2014-08-19T13:29:26Z</time>
      </trkpt>
      <trkpt lat="45.17568" lon="0.72034">
        <ele>83.8</ele>
        <time>2014-08-19T13:29:31Z</time>
      </trkpt>
      <trkpt lat="45.17584" lon="0.72052">
        <ele>84</ele>
        <time>2014-08-19T13:29:37Z</time>
      </trkpt>
      <trkpt lat="45.17604" lon="0.72071">
        <ele>82.89</ele>
        <time>2014-08-19T13:29:44Z</time>
      </trkpt>
      <trkpt lat="45.17622" lon="0.72087">
        <ele>84</ele>
        <time>2014-08-19T13:29:51Z</time>
      </trkpt>
      <trkpt lat="45.17633" lon="0.72092">
        <ele>85.5</ele>
        <time>2014-08-19T13:29:55Z</time>
      </trkpt>
      <trkpt lat="45.17646" lon="0.72066">
        <ele>85</ele>
        <time>2014-08-19T13:30:03Z</time>
      </trkpt>
      <trkpt lat="45.1766" lon="0.72049">
        <ele>84.1</ele>
        <time>2014-08-19T13:30:09Z</time>
      </trkpt>
      <trkpt lat="45.17682" lon="0.72087">
        <ele>81.69</ele>
        <time>2014-08-19T13:30:17Z</time>
      </trkpt>
      <trkpt lat="45.17706" lon="0.72118">
        <ele>79.89</ele>
        <time>2014-08-19T13:30:23Z</time>
      </trkpt>
      <trkpt lat="45.17729" lon="0.7214">
        <ele>82</ele>
        <time>2014-08-19T13:30:29Z</time>
      </trkpt>
      <trkpt lat="45.17759" lon="0.72157">
        <ele>82.39</ele>
        <time>2014-08-19T13:30:34Z</time>
      </trkpt>
      <trkpt lat="45.17774" lon="0.72169">
        <ele>83.6</ele>
        <time>2014-08-19T13:30:39Z</time>
      </trkpt>
      <trkpt lat="45.178" lon="0.72179">
        <ele>86.89</ele>
        <time>2014-08-19T13:30:46Z</time>
      </trkpt>
      <trkpt lat="45.17822" lon="0.72183">
        <ele>84.89</ele>
        <time>2014-08-19T13:30:52Z</time>
      </trkpt>
      <trkpt lat="45.17841" lon="0.72187">
        <ele>85.8</ele>
        <time>2014-08-19T13:30:57Z</time>
      </trkpt>
      <trkpt lat="45.17857" lon="0.72198">
        <ele>88.6</ele>
        <time>2014-08-19T13:31:04Z</time>
      </trkpt>
      <trkpt lat="45.17865" lon="0.72216">
        <ele>87.19</ele>
        <time>2014-08-19T13:31:12Z</time>
      </trkpt>
      <trkpt lat="45.17861" lon="0.7224">
        <ele>87.5</ele>
        <time>2014-08-19T13:31:18Z</time>
      </trkpt>
      <trkpt lat="45.17856" lon="0.72278">
        <ele>85.69</ele>
        <time>2014-08-19T13:31:26Z</time>
      </trkpt>
      <trkpt lat="45.17852" lon="0.72316">
        <ele>84.5</ele>
        <time>2014-08-19T13:31:32Z</time>
      </trkpt>
      <trkpt lat="45.17847" lon="0.72302">
        <ele>82.5</ele>
        <time>2014-08-19T13:31:41Z</time>
      </trkpt>
      <trkpt lat="45.17831" lon="0.72269">
        <ele>79.5</ele>
        <time>2014-08-19T13:31:50Z</time>
      </trkpt>
      <trkpt lat="45.17805" lon="0.72267">
        <ele>80.19</ele>
        <time>2014-08-19T13:31:56Z</time>
      </trkpt>
      <trkpt lat="45.17784" lon="0.72266">
        <ele>80.8</ele>
        <time>2014-08-19T13:32:01Z</time>
      </trkpt>
      <trkpt lat="45.17754" lon="0.72271">
        <ele>80.3</ele>
        <time>2014-08-19T13:32:09Z</time>
      </trkpt>
      <trkpt lat="45.17744" lon="0.72308">
        <ele>78</ele>
        <time>2014-08-19T13:32:16Z</time>
      </trkpt>
      <trkpt lat="45.17727" lon="0.72329">
        <ele>77.5</ele>
        <time>2014-08-19T13:32:21Z</time>
      </trkpt>
      <trkpt lat="45.17709" lon="0.72321">
        <ele>77.8</ele>
        <time>2014-08-19T13:32:27Z</time>
      </trkpt>
      <trkpt lat="45.17702" lon="0.72289">
        <ele>78.19</ele>
        <time>2014-08-19T13:32:33Z</time>
      </trkpt>
      <trkpt lat="45.17699" lon="0.72258">
        <ele>77.69</ele>
        <time>2014-08-19T13:32:38Z</time>
      </trkpt>
      <trkpt lat="45.17701" lon="0.72248">
        <ele>77.69</ele>
        <time>2014-08-19T13:32:40Z</time>
      </trkpt>
      <trkpt lat="45.17691" lon="0.72246">
        <ele>79.1</ele>
        <time>2014-08-19T13:32:50Z</time>
      </trkpt>
      <trkpt lat="45.17656" lon="0.72238">
        <ele>73.19</ele>
        <time>2014-08-19T13:33:01Z</time>
      </trkpt>
      <trkpt lat="45.17627" lon="0.72222">
        <ele>76</ele>
        <time>2014-08-19T13:33:08Z</time>
      </trkpt>
      <trkpt lat="45.17608" lon="0.7221">
        <ele>75.09</ele>
        <time>2014-08-19T13:33:17Z</time>
      </trkpt>
      <trkpt lat="45.176" lon="0.72206">
        <ele>74.9</ele>
        <time>2014-08-19T13:33:21Z</time>
      </trkpt>
      <trkpt lat="45.17597" lon="0.72204">
        <ele>75.4</ele>
        <time>2014-08-19T13:33:33Z</time>
      </trkpt>
      <trkpt lat="45.17586" lon="0.72198">
        <ele>76.09</ele>
        <time>2014-08-19T13:33:45Z</time>
      </trkpt>
      <trkpt lat="45.17576" lon="0.72194">
        <ele>76.8</ele>
        <time>2014-08-19T13:33:59Z</time>
      </trkpt>
      <trkpt lat="45.17568" lon="0.72202">
        <ele>79.19</ele>
        <time>2014-08-19T13:34:16Z</time>
      </trkpt>
      <trkpt lat="45.17556" lon="0.72217">
        <ele>80.19</ele>
        <time>2014-08-19T13:34:24Z</time>
      </trkpt>
      <trkpt lat="45.17541" lon="0.72221">
        <ele>77.5</ele>
        <time>2014-08-19T13:34:33Z</time>
      </trkpt>
      <trkpt lat="45.1753" lon="0.72205">
        <ele>77.19</ele>
        <time>2014-08-19T13:34:38Z</time>
      </trkpt>
      <trkpt lat="45.17521" lon="0.72191">
        <ele>78.59</ele>
        <time>2014-08-19T13:34:42Z</time>
      </trkpt>
      <trkpt lat="45.17507" lon="0.72163">
        <ele>80.69</ele>
        <time>2014-08-19T13:34:49Z</time>
      </trkpt>
      <trkpt lat="45.17497" lon="0.7214">
        <ele>81.3</ele>
        <time>2014-08-19T13:34:54Z</time>
      </trkpt>
      <trkpt lat="45.17485" lon="0.72114">
        <ele>78.5</ele>
        <time>2014-08-19T13:35:00Z</time>
      </trkpt>
      <trkpt lat="45.17466" lon="0.72082">
        <ele>82.69</ele>
        <time>2014-08-19T13:35:08Z</time>
      </trkpt>
      <trkpt lat="45.17451" lon="0.72062">
        <ele>87.3</ele>
        <time>2014-08-19T13:35:14Z</time>
      </trkpt>
      <trkpt lat="45.17435" lon="0.7204">
        <ele>86.69</ele>
        <time>2014-08-19T13:35:21Z</time>
      </trkpt>
      <trkpt lat="45.17434" lon="0.7201">
        <ele>84.39</ele>
        <time>2014-08-19T13:35:28Z</time>
      </trkpt>
      <trkpt lat="45.17436" lon="0.71971">
        <ele>82.39</ele>
        <time>2014-08-19T13:35:35Z</time>
      </trkpt>
      <trkpt lat="45.17434" lon="0.71931">
        <ele>78.4</ele>
        <time>2014-08-19T13:35:40Z</time>
      </trkpt>
      <trkpt lat="45.17431" lon="0.71904">
        <ele>77.5</ele>
        <time>2014-08-19T13:35:43Z</time>
      </trkpt>
      <trkpt lat="45.17423" lon="0.71863">
        <ele>74.9</ele>
        <time>2014-08-19T13:35:48Z</time>
      </trkpt>
      <trkpt lat="45.17417" lon="0.71801">
        <ele>73.8</ele>
        <time>2014-08-19T13:35:55Z</time>
      </trkpt>
      <trkpt lat="45.17413" lon="0.71763">
        <ele>73.69</ele>
        <time>2014-08-19T13:36:00Z</time>
      </trkpt>
      <trkpt lat="45.17415" lon="0.71713">
        <ele>75.5</ele>
        <time>2014-08-19T13:36:07Z</time>
      </trkpt>
      <trkpt lat="45.17417" lon="0.71679">
        <ele>77</ele>
        <time>2014-08-19T13:36:12Z</time>
      </trkpt>
      <trkpt lat="45.17418" lon="0.71656">
        <ele>77</ele>
        <time>2014-08-19T13:36:15Z</time>
      </trkpt>
      <trkpt lat="45.1742" lon="0.71633">
        <ele>75.5</ele>
        <time>2014-08-19T13:36:18Z</time>
      </trkpt>
      <trkpt lat="45.17422" lon="0.71585">
        <ele>75.4</ele>
        <time>2014-08-19T13:36:24Z</time>
      </trkpt>
      <trkpt lat="45.17427" lon="0.71539">
        <ele>77.09</ele>
        <time>2014-08-19T13:36:30Z</time>
      </trkpt>
      <trkpt lat="45.17426" lon="0.71496">
        <ele>76.3</ele>
        <time>2014-08-19T13:36:36Z</time>
      </trkpt>
      <trkpt lat="45.17431" lon="0.71457">
        <ele>74.59</ele>
        <time>2014-08-19T13:36:42Z</time>
      </trkpt>
      <trkpt lat="45.17436" lon="0.71427">
        <ele>74.4</ele>
        <time>2014-08-19T13:36:47Z</time>
      </trkpt>
      <trkpt lat="45.17435" lon="0.71393">
        <ele>75.4</ele>
        <time>2014-08-19T13:36:53Z</time>
      </trkpt>
      <trkpt lat="45.17436" lon="0.71387">
        <ele>79</ele>
        <time>2014-08-19T13:37:00Z</time>
      </trkpt>
      <trkpt lat="45.17437" lon="0.71384">
        <ele>80</ele>
        <time>2014-08-19T13:37:08Z</time>
      </trkpt>
      <trkpt lat="45.1741" lon="0.71377">
        <ele>76.8</ele>
        <time>2014-08-19T13:39:11Z</time>
      </trkpt>
      <trkpt lat="45.17387" lon="0.71377">
        <ele>73.5</ele>
        <time>2014-08-19T13:39:21Z</time>
      </trkpt>
      <trkpt lat="45.17371" lon="0.71374">
        <ele>69.8</ele>
        <time>2014-08-19T13:39:27Z</time>
      </trkpt>
      <trkpt lat="45.17347" lon="0.71369">
        <ele>72.59</ele>
        <time>2014-08-19T13:39:34Z</time>
      </trkpt>
      <trkpt lat="45.17325" lon="0.71364">
        <ele>71.9</ele>
        <time>2014-08-19T13:39:41Z</time>
      </trkpt>
      <trkpt lat="45.17304" lon="0.71359">
        <ele>72</ele>
        <time>2014-08-19T13:39:48Z</time>
      </trkpt>
      <trkpt lat="45.1728" lon="0.71355">
        <ele>74.19</ele>
        <time>2014-08-19T13:39:56Z</time>
      </trkpt>
      <trkpt lat="45.17252" lon="0.71349">
        <ele>81.3</ele>
        <time>2014-08-19T13:40:05Z</time>
      </trkpt>
      <trkpt lat="45.17237" lon="0.71345">
        <ele>79.6</ele>
        <time>2014-08-19T13:40:12Z</time>
      </trkpt>
      <trkpt lat="45.17214" lon="0.71342">
        <ele>82.6</ele>
        <time>2014-08-19T13:40:23Z</time>
      </trkpt>
      <trkpt lat="45.17184" lon="0.71337">
        <ele>85.69</ele>
        <time>2014-08-19T13:40:35Z</time>
      </trkpt>
      <trkpt lat="45.1717" lon="0.71334">
        <ele>86.3</ele>
        <time>2014-08-19T13:40:41Z</time>
      </trkpt>
      <trkpt lat="45.17146" lon="0.7133">
        <ele>88.1</ele>
        <time>2014-08-19T13:40:50Z</time>
      </trkpt>
      <trkpt lat="45.17128" lon="0.71324">
        <ele>86.89</ele>
        <time>2014-08-19T13:40:59Z</time>
      </trkpt>
      <trkpt lat="45.17097" lon="0.71318">
        <ele>86.39</ele>
        <time>2014-08-19T13:41:11Z</time>
      </trkpt>
      <trkpt lat="45.17077" lon="0.7131">
        <ele>86.89</ele>
        <time>2014-08-19T13:41:18Z</time>
      </trkpt>
      <trkpt lat="45.17058" lon="0.71302">
        <ele>89.69</ele>
        <time>2014-08-19T13:41:25Z</time>
      </trkpt>
      <trkpt lat="45.17041" lon="0.71294">
        <ele>90.5</ele>
        <time>2014-08-19T13:41:32Z</time>
      </trkpt>
      <trkpt lat="45.1702" lon="0.71282">
        <ele>91.8</ele>
        <time>2014-08-19T13:41:41Z</time>
      </trkpt>
      <trkpt lat="45.16998" lon="0.71271">
        <ele>91.89</ele>
        <time>2014-08-19T13:41:49Z</time>
      </trkpt>
      <trkpt lat="45.1697" lon="0.71257">
        <ele>93.3</ele>
        <time>2014-08-19T13:41:56Z</time>
      </trkpt>
      <trkpt lat="45.16959" lon="0.71249">
        <ele>95.6</ele>
        <time>2014-08-19T13:41:59Z</time>
      </trkpt>
      <trkpt lat="45.16936" lon="0.71218">
        <ele>95.69</ele>
        <time>2014-08-19T13:42:07Z</time>
      </trkpt>
      <trkpt lat="45.16922" lon="0.712">
        <ele>97.5</ele>
        <time>2014-08-19T13:42:13Z</time>
      </trkpt>
      <trkpt lat="45.16912" lon="0.71183">
        <ele>97.5</ele>
        <time>2014-08-19T13:42:18Z</time>
      </trkpt>
      <trkpt lat="45.16902" lon="0.7116">
        <ele>98.89</ele>
        <time>2014-08-19T13:42:25Z</time>
      </trkpt>
      <trkpt lat="45.16896" lon="0.71145">
        <ele>100</ele>
        <time>2014-08-19T13:42:30Z</time>
      </trkpt>
      <trkpt lat="45.1689" lon="0.71131">
        <ele>100.39</ele>
        <time>2014-08-19T13:42:34Z</time>
      </trkpt>
      <trkpt lat="45.1688" lon="0.71108">
        <ele>101.69</ele>
        <time>2014-08-19T13:42:41Z</time>
      </trkpt>
      <trkpt lat="45.16869" lon="0.71078">
        <ele>103.6</ele>
        <time>2014-08-19T13:42:48Z</time>
      </trkpt>
      <trkpt lat="45.1686" lon="0.7105">
        <ele>106.1</ele>
        <time>2014-08-19T13:42:55Z</time>
      </trkpt>
      <trkpt lat="45.16853" lon="0.71024">
        <ele>106.6</ele>
        <time>2014-08-19T13:43:01Z</time>
      </trkpt>
      <trkpt lat="45.1684" lon="0.70986">
        <ele>110.1</ele>
        <time>2014-08-19T13:43:09Z</time>
      </trkpt>
      <trkpt lat="45.16829" lon="0.70955">
        <ele>109.6</ele>
        <time>2014-08-19T13:43:16Z</time>
      </trkpt>
      <trkpt lat="45.16826" lon="0.70939">
        <ele>109.5</ele>
        <time>2014-08-19T13:43:19Z</time>
      </trkpt>
      <trkpt lat="45.16822" lon="0.70923">
        <ele>108.69</ele>
        <time>2014-08-19T13:43:22Z</time>
      </trkpt>
      <trkpt lat="45.16818" lon="0.70903">
        <ele>108.39</ele>
        <time>2014-08-19T13:43:26Z</time>
      </trkpt>
      <trkpt lat="45.16809" lon="0.70876">
        <ele>109.69</ele>
        <time>2014-08-19T13:43:32Z</time>
      </trkpt>
      <trkpt lat="45.16794" lon="0.70842">
        <ele>107.5</ele>
        <time>2014-08-19T13:43:39Z</time>
      </trkpt>
      <trkpt lat="45.16779" lon="0.70824">
        <ele>106.69</ele>
        <time>2014-08-19T13:43:44Z</time>
      </trkpt>
      <trkpt lat="45.16759" lon="0.70799">
        <ele>106.8</ele>
        <time>2014-08-19T13:43:51Z</time>
      </trkpt>
      <trkpt lat="45.16753" lon="0.70761">
        <ele>106.19</ele>
        <time>2014-08-19T13:43:58Z</time>
      </trkpt>
      <trkpt lat="45.16747" lon="0.70729">
        <ele>106.5</ele>
        <time>2014-08-19T13:44:05Z</time>
      </trkpt>
      <trkpt lat="45.16743" lon="0.70709">
        <ele>106.19</ele>
        <time>2014-08-19T13:44:10Z</time>
      </trkpt>
      <trkpt lat="45.16739" lon="0.70677">
        <ele>107</ele>
        <time>2014-08-19T13:44:18Z</time>
      </trkpt>
      <trkpt lat="45.16735" lon="0.70645">
        <ele>108.6</ele>
        <time>2014-08-19T13:44:26Z</time>
      </trkpt>
      <trkpt lat="45.16733" lon="0.70627">
        <ele>109.1</ele>
        <time>2014-08-19T13:44:30Z</time>
      </trkpt>
      <trkpt lat="45.1673" lon="0.70606">
        <ele>109.3</ele>
        <time>2014-08-19T13:44:35Z</time>
      </trkpt>
      <trkpt lat="45.16725" lon="0.70577">
        <ele>109.5</ele>
        <time>2014-08-19T13:44:42Z</time>
      </trkpt>
      <trkpt lat="45.16719" lon="0.70548">
        <ele>110.8</ele>
        <time>2014-08-19T13:44:49Z</time>
      </trkpt>
      <trkpt lat="45.16711" lon="0.70518">
        <ele>111.19</ele>
        <time>2014-08-19T13:44:57Z</time>
      </trkpt>
      <trkpt lat="45.16706" lon="0.70492">
        <ele>111.69</ele>
        <time>2014-08-19T13:45:04Z</time>
      </trkpt>
      <trkpt lat="45.167" lon="0.70467">
        <ele>112</ele>
        <time>2014-08-19T13:45:10Z</time>
      </trkpt>
      <trkpt lat="45.16695" lon="0.70438">
        <ele>113.1</ele>
        <time>2014-08-19T13:45:17Z</time>
      </trkpt>
      <trkpt lat="45.1669" lon="0.70411">
        <ele>116.1</ele>
        <time>2014-08-19T13:45:24Z</time>
      </trkpt>
      <trkpt lat="45.16687" lon="0.70383">
        <ele>123.5</ele>
        <time>2014-08-19T13:45:31Z</time>
      </trkpt>
      <trkpt lat="45.16679" lon="0.70349">
        <ele>118.69</ele>
        <time>2014-08-19T13:45:39Z</time>
      </trkpt>
      <trkpt lat="45.16678" lon="0.70317">
        <ele>114.6</ele>
        <time>2014-08-19T13:45:47Z</time>
      </trkpt>
      <trkpt lat="45.16681" lon="0.70287">
        <ele>115.8</ele>
        <time>2014-08-19T13:45:55Z</time>
      </trkpt>
      <trkpt lat="45.16694" lon="0.70269">
        <ele>116.39</ele>
        <time>2014-08-19T13:46:03Z</time>
      </trkpt>
      <trkpt lat="45.16712" lon="0.70246">
        <ele>115.5</ele>
        <time>2014-08-19T13:46:15Z</time>
      </trkpt>
      <trkpt lat="45.1673" lon="0.70222">
        <ele>115.3</ele>
        <time>2014-08-19T13:46:23Z</time>
      </trkpt>
      <trkpt lat="45.16743" lon="0.70201">
        <ele>114.5</ele>
        <time>2014-08-19T13:46:30Z</time>
      </trkpt>
      <trkpt lat="45.16751" lon="0.70189">
        <ele>113.69</ele>
        <time>2014-08-19T13:46:35Z</time>
      </trkpt>
      <trkpt lat="45.16764" lon="0.7016">
        <ele>115.6</ele>
        <time>2014-08-19T13:46:44Z</time>
      </trkpt>
      <trkpt lat="45.16768" lon="0.70143">
        <ele>117.3</ele>
        <time>2014-08-19T13:46:49Z</time>
      </trkpt>
      <trkpt lat="45.16773" lon="0.70116">
        <ele>118.69</ele>
        <time>2014-08-19T13:46:58Z</time>
      </trkpt>
      <trkpt lat="45.16773" lon="0.70085">
        <ele>121.69</ele>
        <time>2014-08-19T13:47:10Z</time>
      </trkpt>
      <trkpt lat="45.16774" lon="0.70063">
        <ele>121.6</ele>
        <time>2014-08-19T13:47:19Z</time>
      </trkpt>
      <trkpt lat="45.16774" lon="0.70042">
        <ele>123.39</ele>
        <time>2014-08-19T13:47:28Z</time>
      </trkpt>
      <trkpt lat="45.16773" lon="0.70021">
        <ele>122.39</ele>
        <time>2014-08-19T13:47:37Z</time>
      </trkpt>
      <trkpt lat="45.16774" lon="0.70003">
        <ele>122.5</ele>
        <time>2014-08-19T13:47:46Z</time>
      </trkpt>
      <trkpt lat="45.16761" lon="0.69981">
        <ele>129</ele>
        <time>2014-08-19T13:47:59Z</time>
      </trkpt>
      <trkpt lat="45.16745" lon="0.69982">
        <ele>130.6</ele>
        <time>2014-08-19T13:48:12Z</time>
      </trkpt>
      <trkpt lat="45.16733" lon="0.70005">
        <ele>130.5</ele>
        <time>2014-08-19T13:48:29Z</time>
      </trkpt>
      <trkpt lat="45.16719" lon="0.70035">
        <ele>129.69</ele>
        <time>2014-08-19T13:48:49Z</time>
      </trkpt>
      <trkpt lat="45.16708" lon="0.70052">
        <ele>134.3</ele>
        <time>2014-08-19T13:49:01Z</time>
      </trkpt>
      <trkpt lat="45.16689" lon="0.70048">
        <ele>139.89</ele>
        <time>2014-08-19T13:49:14Z</time>
      </trkpt>
      <trkpt lat="45.16684" lon="0.70029">
        <ele>142.39</ele>
        <time>2014-08-19T13:49:24Z</time>
      </trkpt>
      <trkpt lat="45.16687" lon="0.70013">
        <ele>141.89</ele>
        <time>2014-08-19T13:49:32Z</time>
      </trkpt>
      <trkpt lat="45.16692" lon="0.69995">
        <ele>140.8</ele>
        <time>2014-08-19T13:49:41Z</time>
      </trkpt>
      <trkpt lat="45.16697" lon="0.69969">
        <ele>143.5</ele>
        <time>2014-08-19T13:49:53Z</time>
      </trkpt>
      <trkpt lat="45.16702" lon="0.69954">
        <ele>144.6</ele>
        <time>2014-08-19T13:50:01Z</time>
      </trkpt>
      <trkpt lat="45.16705" lon="0.69926">
        <ele>146.69</ele>
        <time>2014-08-19T13:50:14Z</time>
      </trkpt>
      <trkpt lat="45.16696" lon="0.69901">
        <ele>147.69</ele>
        <time>2014-08-19T13:50:27Z</time>
      </trkpt>
      <trkpt lat="45.16687" lon="0.69893">
        <ele>150.5</ele>
        <time>2014-08-19T13:50:35Z</time>
      </trkpt>
      <trkpt lat="45.16677" lon="0.6989">
        <ele>152.6</ele>
        <time>2014-08-19T13:50:45Z</time>
      </trkpt>
      <trkpt lat="45.1666" lon="0.69901">
        <ele>153.19</ele>
        <time>2014-08-19T13:51:00Z</time>
      </trkpt>
      <trkpt lat="45.1665" lon="0.69911">
        <ele>153.6</ele>
        <time>2014-08-19T13:51:11Z</time>
      </trkpt>
      <trkpt lat="45.16636" lon="0.69927">
        <ele>154.8</ele>
        <time>2014-08-19T13:51:23Z</time>
      </trkpt>
      <trkpt lat="45.16623" lon="0.69936">
        <ele>153.5</ele>
        <time>2014-08-19T13:51:31Z</time>
      </trkpt>
      <trkpt lat="45.16614" lon="0.69941">
        <ele>151.3</ele>
        <time>2014-08-19T13:51:38Z</time>
      </trkpt>
      <trkpt lat="45.16596" lon="0.69945">
        <ele>157.69</ele>
        <time>2014-08-19T13:51:49Z</time>
      </trkpt>
      <trkpt lat="45.16589" lon="0.6993">
        <ele>161.19</ele>
        <time>2014-08-19T13:51:58Z</time>
      </trkpt>
      <trkpt lat="45.16581" lon="0.69908">
        <ele>161.6</ele>
        <time>2014-08-19T13:52:10Z</time>
      </trkpt>
      <trkpt lat="45.16575" lon="0.69883">
        <ele>164.19</ele>
        <time>2014-08-19T13:52:23Z</time>
      </trkpt>
      <trkpt lat="45.16564" lon="0.6986">
        <ele>165.6</ele>
        <time>2014-08-19T13:52:35Z</time>
      </trkpt>
      <trkpt lat="45.16555" lon="0.69843">
        <ele>167.6</ele>
        <time>2014-08-19T13:52:45Z</time>
      </trkpt>
      <trkpt lat="45.16545" lon="0.69828">
        <ele>170</ele>
        <time>2014-08-19T13:52:54Z</time>
      </trkpt>
      <trkpt lat="45.1653" lon="0.69806">
        <ele>170.19</ele>
        <time>2014-08-19T13:53:04Z</time>
      </trkpt>
      <trkpt lat="45.16517" lon="0.69787">
        <ele>171.3</ele>
        <time>2014-08-19T13:53:13Z</time>
      </trkpt>
      <trkpt lat="45.16504" lon="0.69767">
        <ele>172</ele>
        <time>2014-08-19T13:53:23Z</time>
      </trkpt>
      <trkpt lat="45.16491" lon="0.69741">
        <ele>172.6</ele>
        <time>2014-08-19T13:53:33Z</time>
      </trkpt>
      <trkpt lat="45.16478" lon="0.69714">
        <ele>173.6</ele>
        <time>2014-08-19T13:53:42Z</time>
      </trkpt>
      <trkpt lat="45.16463" lon="0.69688">
        <ele>173.39</ele>
        <time>2014-08-19T13:53:51Z</time>
      </trkpt>
      <trkpt lat="45.16453" lon="0.69672">
        <ele>173.69</ele>
        <time>2014-08-19T13:53:56Z</time>
      </trkpt>
      <trkpt lat="45.16438" lon="0.69651">
        <ele>174.1</ele>
        <time>2014-08-19T13:54:04Z</time>
      </trkpt>
      <trkpt lat="45.16432" lon="0.69639">
        <ele>174.19</ele>
        <time>2014-08-19T13:54:08Z</time>
      </trkpt>
      <trkpt lat="45.16418" lon="0.69613">
        <ele>175.6</ele>
        <time>2014-08-19T13:54:18Z</time>
      </trkpt>
      <trkpt lat="45.16404" lon="0.69594">
        <ele>176.89</ele>
        <time>2014-08-19T13:54:28Z</time>
      </trkpt>
      <trkpt lat="45.16381" lon="0.69588">
        <ele>177.69</ele>
        <time>2014-08-19T13:54:38Z</time>
      </trkpt>
      <trkpt lat="45.16364" lon="0.69577">
        <ele>179.5</ele>
        <time>2014-08-19T13:54:47Z</time>
      </trkpt>
      <trkpt lat="45.16346" lon="0.69564">
        <ele>180.6</ele>
        <time>2014-08-19T13:54:57Z</time>
      </trkpt>
      <trkpt lat="45.16337" lon="0.69557">
        <ele>180.39</ele>
        <time>2014-08-19T13:55:02Z</time>
      </trkpt>
      <trkpt lat="45.16325" lon="0.69547">
        <ele>181.39</ele>
        <time>2014-08-19T13:55:08Z</time>
      </trkpt>
      <trkpt lat="45.16308" lon="0.69534">
        <ele>182.39</ele>
        <time>2014-08-19T13:55:16Z</time>
      </trkpt>
      <trkpt lat="45.16288" lon="0.69518">
        <ele>184.1</ele>
        <time>2014-08-19T13:55:26Z</time>
      </trkpt>
      <trkpt lat="45.16275" lon="0.69508">
        <ele>185.19</ele>
        <time>2014-08-19T13:55:31Z</time>
      </trkpt>
      <trkpt lat="45.16257" lon="0.69489">
        <ele>186.5</ele>
        <time>2014-08-19T13:55:39Z</time>
      </trkpt>
      <trkpt lat="45.16238" lon="0.69472">
        <ele>185.69</ele>
        <time>2014-08-19T13:55:47Z</time>
      </trkpt>
      <trkpt lat="45.16215" lon="0.69457">
        <ele>186.1</ele>
        <time>2014-08-19T13:55:56Z</time>
      </trkpt>
      <trkpt lat="45.16203" lon="0.69448">
        <ele>185.39</ele>
        <time>2014-08-19T13:56:01Z</time>
      </trkpt>
      <trkpt lat="45.16191" lon="0.69439">
        <ele>184.39</ele>
        <time>2014-08-19T13:56:06Z</time>
      </trkpt>
      <trkpt lat="45.16174" lon="0.69426">
        <ele>185.19</ele>
        <time>2014-08-19T13:56:13Z</time>
      </trkpt>
      <trkpt lat="45.16155" lon="0.69414">
        <ele>187.1</ele>
        <time>2014-08-19T13:56:21Z</time>
      </trkpt>
      <trkpt lat="45.16136" lon="0.69403">
        <ele>188.3</ele>
        <time>2014-08-19T13:56:29Z</time>
      </trkpt>
      <trkpt lat="45.16116" lon="0.69397">
        <ele>189.19</ele>
        <time>2014-08-19T13:56:37Z</time>
      </trkpt>
      <trkpt lat="45.16103" lon="0.69394">
        <ele>189.19</ele>
        <time>2014-08-19T13:56:43Z</time>
      </trkpt>
      <trkpt lat="45.16091" lon="0.69391">
        <ele>190</ele>
        <time>2014-08-19T13:56:48Z</time>
      </trkpt>
      <trkpt lat="45.16072" lon="0.69382">
        <ele>190</ele>
        <time>2014-08-19T13:56:57Z</time>
      </trkpt>
      <trkpt lat="45.16049" lon="0.6937">
        <ele>190.6</ele>
        <time>2014-08-19T13:57:07Z</time>
      </trkpt>
      <trkpt lat="45.16034" lon="0.69357">
        <ele>192.6</ele>
        <time>2014-08-19T13:57:14Z</time>
      </trkpt>
      <trkpt lat="45.16027" lon="0.69346">
        <ele>192.89</ele>
        <time>2014-08-19T13:57:18Z</time>
      </trkpt>
      <trkpt lat="45.16009" lon="0.69325">
        <ele>195.3</ele>
        <time>2014-08-19T13:57:26Z</time>
      </trkpt>
      <trkpt lat="45.15993" lon="0.69307">
        <ele>194.6</ele>
        <time>2014-08-19T13:57:34Z</time>
      </trkpt>
      <trkpt lat="45.15976" lon="0.69287">
        <ele>195.5</ele>
        <time>2014-08-19T13:57:43Z</time>
      </trkpt>
      <trkpt lat="45.15957" lon="0.69266">
        <ele>197.8</ele>
        <time>2014-08-19T13:57:52Z</time>
      </trkpt>
      <trkpt lat="45.15944" lon="0.69246">
        <ele>198.39</ele>
        <time>2014-08-19T13:58:00Z</time>
      </trkpt>
      <trkpt lat="45.15934" lon="0.69225">
        <ele>199</ele>
        <time>2014-08-19T13:58:07Z</time>
      </trkpt>
      <trkpt lat="45.15927" lon="0.69209">
        <ele>198.5</ele>
        <time>2014-08-19T13:58:12Z</time>
      </trkpt>
      <trkpt lat="45.15921" lon="0.69192">
        <ele>198</ele>
        <time>2014-08-19T13:58:17Z</time>
      </trkpt>
      <trkpt lat="45.1591" lon="0.69167">
        <ele>198.69</ele>
        <time>2014-08-19T13:58:25Z</time>
      </trkpt>
      <trkpt lat="45.15897" lon="0.69141">
        <ele>199.39</ele>
        <time>2014-08-19T13:58:34Z</time>
      </trkpt>
      <trkpt lat="45.15885" lon="0.69116">
        <ele>200.89</ele>
        <time>2014-08-19T13:58:42Z</time>
      </trkpt>
      <trkpt lat="45.15872" lon="0.69098">
        <ele>201.19</ele>
        <time>2014-08-19T13:58:50Z</time>
      </trkpt>
      <trkpt lat="45.15857" lon="0.69082">
        <ele>201.8</ele>
        <time>2014-08-19T13:58:59Z</time>
      </trkpt>
      <trkpt lat="45.15851" lon="0.69075">
        <ele>203.3</ele>
        <time>2014-08-19T13:59:03Z</time>
      </trkpt>
      <trkpt lat="45.15836" lon="0.69057">
        <ele>206.5</ele>
        <time>2014-08-19T13:59:13Z</time>
      </trkpt>
      <trkpt lat="45.15826" lon="0.69046">
        <ele>206.89</ele>
        <time>2014-08-19T13:59:21Z</time>
      </trkpt>
      <trkpt lat="45.15814" lon="0.69031">
        <ele>207.39</ele>
        <time>2014-08-19T13:59:30Z</time>
      </trkpt>
      <trkpt lat="45.15801" lon="0.69018">
        <ele>210.39</ele>
        <time>2014-08-19T13:59:41Z</time>
      </trkpt>
      <trkpt lat="45.15785" lon="0.69">
        <ele>211.39</ele>
        <time>2014-08-19T13:59:55Z</time>
      </trkpt>
      <trkpt lat="45.15772" lon="0.68982">
        <ele>212.29</ele>
        <time>2014-08-19T14:00:07Z</time>
      </trkpt>
      <trkpt lat="45.15754" lon="0.68962">
        <ele>213.89</ele>
        <time>2014-08-19T14:00:21Z</time>
      </trkpt>
      <trkpt lat="45.15745" lon="0.68944">
        <ele>214.89</ele>
        <time>2014-08-19T14:00:30Z</time>
      </trkpt>
      <trkpt lat="45.15744" lon="0.68898">
        <ele>214.89</ele>
        <time>2014-08-19T14:00:43Z</time>
      </trkpt>
      <trkpt lat="45.15749" lon="0.6887">
        <ele>215.1</ele>
        <time>2014-08-19T14:00:51Z</time>
      </trkpt>
      <trkpt lat="45.15751" lon="0.68858">
        <ele>215.39</ele>
        <time>2014-08-19T14:00:54Z</time>
      </trkpt>
      <trkpt lat="45.15757" lon="0.68823">
        <ele>214.5</ele>
        <time>2014-08-19T14:01:01Z</time>
      </trkpt>
      <trkpt lat="45.15772" lon="0.68798">
        <ele>212.5</ele>
        <time>2014-08-19T14:01:07Z</time>
      </trkpt>
      <trkpt lat="45.1581" lon="0.68789">
        <ele>211.39</ele>
        <time>2014-08-19T14:01:14Z</time>
      </trkpt>
      <trkpt lat="45.15845" lon="0.68778">
        <ele>209.6</ele>
        <time>2014-08-19T14:01:20Z</time>
      </trkpt>
      <trkpt lat="45.15888" lon="0.68765">
        <ele>208.1</ele>
        <time>2014-08-19T14:01:26Z</time>
      </trkpt>
      <trkpt lat="45.15932" lon="0.6875">
        <ele>205</ele>
        <time>2014-08-19T14:01:32Z</time>
      </trkpt>
      <trkpt lat="45.15975" lon="0.68731">
        <ele>203.39</ele>
        <time>2014-08-19T14:01:38Z</time>
      </trkpt>
      <trkpt lat="45.16008" lon="0.68696">
        <ele>203.69</ele>
        <time>2014-08-19T14:01:44Z</time>
      </trkpt>
      <trkpt lat="45.16032" lon="0.68665">
        <ele>203.6</ele>
        <time>2014-08-19T14:01:49Z</time>
      </trkpt>
      <trkpt lat="45.16059" lon="0.68651">
        <ele>204.3</ele>
        <time>2014-08-19T14:01:54Z</time>
      </trkpt>
      <trkpt lat="45.16097" lon="0.68648">
        <ele>203.6</ele>
        <time>2014-08-19T14:02:01Z</time>
      </trkpt>
      <trkpt lat="45.16131" lon="0.68634">
        <ele>202.89</ele>
        <time>2014-08-19T14:02:07Z</time>
      </trkpt>
      <trkpt lat="45.16167" lon="0.68613">
        <ele>202.5</ele>
        <time>2014-08-19T14:02:13Z</time>
      </trkpt>
      <trkpt lat="45.16198" lon="0.68598">
        <ele>201.3</ele>
        <time>2014-08-19T14:02:18Z</time>
      </trkpt>
      <trkpt lat="45.16244" lon="0.68595">
        <ele>200.5</ele>
        <time>2014-08-19T14:02:25Z</time>
      </trkpt>
      <trkpt lat="45.16284" lon="0.68607">
        <ele>198.89</ele>
        <time>2014-08-19T14:02:31Z</time>
      </trkpt>
      <trkpt lat="45.16319" lon="0.68611">
        <ele>197.6</ele>
        <time>2014-08-19T14:02:36Z</time>
      </trkpt>
      <trkpt lat="45.16356" lon="0.6859">
        <ele>196.5</ele>
        <time>2014-08-19T14:02:42Z</time>
      </trkpt>
      <trkpt lat="45.16376" lon="0.68572">
        <ele>196.1</ele>
        <time>2014-08-19T14:02:46Z</time>
      </trkpt>
      <trkpt lat="45.16401" lon="0.68532">
        <ele>194.39</ele>
        <time>2014-08-19T14:02:52Z</time>
      </trkpt>
      <trkpt lat="45.16427" lon="0.6847">
        <ele>188.8</ele>
        <time>2014-08-19T14:02:58Z</time>
      </trkpt>
      <trkpt lat="45.16464" lon="0.68431">
        <ele>187.3</ele>
        <time>2014-08-19T14:03:04Z</time>
      </trkpt>
      <trkpt lat="45.16506" lon="0.68403">
        <ele>179.3</ele>
        <time>2014-08-19T14:03:09Z</time>
      </trkpt>
      <trkpt lat="45.16561" lon="0.68372">
        <ele>176.1</ele>
        <time>2014-08-19T14:03:15Z</time>
      </trkpt>
      <trkpt lat="45.16633" lon="0.6839">
        <ele>171.5</ele>
        <time>2014-08-19T14:03:23Z</time>
      </trkpt>
      <trkpt lat="45.16702" lon="0.68419">
        <ele>167.1</ele>
        <time>2014-08-19T14:03:29Z</time>
      </trkpt>
      <trkpt lat="45.16784" lon="0.68425">
        <ele>161.1</ele>
        <time>2014-08-19T14:03:36Z</time>
      </trkpt>
      <trkpt lat="45.16836" lon="0.68431">
        <ele>157.19</ele>
        <time>2014-08-19T14:03:41Z</time>
      </trkpt>
      <trkpt lat="45.16891" lon="0.68382">
        <ele>153.1</ele>
        <time>2014-08-19T14:03:47Z</time>
      </trkpt>
      <trkpt lat="45.16931" lon="0.68301">
        <ele>146.6</ele>
        <time>2014-08-19T14:03:53Z</time>
      </trkpt>
      <trkpt lat="45.16971" lon="0.68248">
        <ele>145.5</ele>
        <time>2014-08-19T14:03:58Z</time>
      </trkpt>
      <trkpt lat="45.17035" lon="0.68233">
        <ele>140.3</ele>
        <time>2014-08-19T14:04:04Z</time>
      </trkpt>
      <trkpt lat="45.17077" lon="0.6822">
        <ele>138.1</ele>
        <time>2014-08-19T14:04:08Z</time>
      </trkpt>
      <trkpt lat="45.17117" lon="0.68174">
        <ele>136.1</ele>
        <time>2014-08-19T14:04:13Z</time>
      </trkpt>
      <trkpt lat="45.17154" lon="0.68125">
        <ele>133.69</ele>
        <time>2014-08-19T14:04:18Z</time>
      </trkpt>
      <trkpt lat="45.17197" lon="0.68072">
        <ele>132.8</ele>
        <time>2014-08-19T14:04:24Z</time>
      </trkpt>
      <trkpt lat="45.17215" lon="0.68048">
        <ele>130.5</ele>
        <time>2014-08-19T14:04:27Z</time>
      </trkpt>
      <trkpt lat="45.17236" lon="0.68031">
        <ele>125.69</ele>
        <time>2014-08-19T14:04:30Z</time>
      </trkpt>
      <trkpt lat="45.17261" lon="0.68021">
        <ele>124</ele>
        <time>2014-08-19T14:04:33Z</time>
      </trkpt>
      <trkpt lat="45.17314" lon="0.68018">
        <ele>127.1</ele>
        <time>2014-08-19T14:04:38Z</time>
      </trkpt>
      <trkpt lat="45.17343" lon="0.68013">
        <ele>125.5</ele>
        <time>2014-08-19T14:04:41Z</time>
      </trkpt>
      <trkpt lat="45.1737" lon="0.67995">
        <ele>123.69</ele>
        <time>2014-08-19T14:04:44Z</time>
      </trkpt>
      <trkpt lat="45.17396" lon="0.67974">
        <ele>123.39</ele>
        <time>2014-08-19T14:04:47Z</time>
      </trkpt>
      <trkpt lat="45.17447" lon="0.67934">
        <ele>124.3</ele>
        <time>2014-08-19T14:04:53Z</time>
      </trkpt>
      <trkpt lat="45.17503" lon="0.67902">
        <ele>119.5</ele>
        <time>2014-08-19T14:05:00Z</time>
      </trkpt>
      <trkpt lat="45.17562" lon="0.67883">
        <ele>118.69</ele>
        <time>2014-08-19T14:05:07Z</time>
      </trkpt>
      <trkpt lat="45.17605" lon="0.67871">
        <ele>116.39</ele>
        <time>2014-08-19T14:05:12Z</time>
      </trkpt>
      <trkpt lat="45.17634" lon="0.67825">
        <ele>110.1</ele>
        <time>2014-08-19T14:05:18Z</time>
      </trkpt>
      <trkpt lat="45.17644" lon="0.6774">
        <ele>111.19</ele>
        <time>2014-08-19T14:05:25Z</time>
      </trkpt>
      <trkpt lat="45.17652" lon="0.67679">
        <ele>109.5</ele>
        <time>2014-08-19T14:05:30Z</time>
      </trkpt>
      <trkpt lat="45.17658" lon="0.67619">
        <ele>109.3</ele>
        <time>2014-08-19T14:05:35Z</time>
      </trkpt>
      <trkpt lat="45.17668" lon="0.6756">
        <ele>106.19</ele>
        <time>2014-08-19T14:05:40Z</time>
      </trkpt>
      <trkpt lat="45.17695" lon="0.67489">
        <ele>103.8</ele>
        <time>2014-08-19T14:05:47Z</time>
      </trkpt>
      <trkpt lat="45.17718" lon="0.6743">
        <ele>102.6</ele>
        <time>2014-08-19T14:05:53Z</time>
      </trkpt>
      <trkpt lat="45.17733" lon="0.67383">
        <ele>100.19</ele>
        <time>2014-08-19T14:05:58Z</time>
      </trkpt>
      <trkpt lat="45.17756" lon="0.67326">
        <ele>99.19</ele>
        <time>2014-08-19T14:06:04Z</time>
      </trkpt>
      <trkpt lat="45.17767" lon="0.67297">
        <ele>99</ele>
        <time>2014-08-19T14:06:07Z</time>
      </trkpt>
      <trkpt lat="45.1779" lon="0.67238">
        <ele>98.1</ele>
        <time>2014-08-19T14:06:13Z</time>
      </trkpt>
      <trkpt lat="45.17802" lon="0.6721">
        <ele>97.3</ele>
        <time>2014-08-19T14:06:16Z</time>
      </trkpt>
      <trkpt lat="45.17831" lon="0.6717">
        <ele>97.39</ele>
        <time>2014-08-19T14:06:21Z</time>
      </trkpt>
      <trkpt lat="45.17858" lon="0.67146">
        <ele>97.5</ele>
        <time>2014-08-19T14:06:25Z</time>
      </trkpt>
      <trkpt lat="45.17888" lon="0.67102">
        <ele>98.19</ele>
        <time>2014-08-19T14:06:31Z</time>
      </trkpt>
      <trkpt lat="45.17914" lon="0.67054">
        <ele>97.69</ele>
        <time>2014-08-19T14:06:37Z</time>
      </trkpt>
      <trkpt lat="45.17949" lon="0.6702">
        <ele>96.5</ele>
        <time>2014-08-19T14:06:42Z</time>
      </trkpt>
      <trkpt lat="45.17985" lon="0.67009">
        <ele>97</ele>
        <time>2014-08-19T14:06:47Z</time>
      </trkpt>
      <trkpt lat="45.18028" lon="0.66979">
        <ele>96.89</ele>
        <time>2014-08-19T14:06:54Z</time>
      </trkpt>
      <trkpt lat="45.18059" lon="0.66934">
        <ele>97</ele>
        <time>2014-08-19T14:07:00Z</time>
      </trkpt>
      <trkpt lat="45.18076" lon="0.66889">
        <ele>95.5</ele>
        <time>2014-08-19T14:07:05Z</time>
      </trkpt>
      <trkpt lat="45.18096" lon="0.66832">
        <ele>94.3</ele>
        <time>2014-08-19T14:07:11Z</time>
      </trkpt>
      <trkpt lat="45.18117" lon="0.66791">
        <ele>94.39</ele>
        <time>2014-08-19T14:07:16Z</time>
      </trkpt>
      <trkpt lat="45.18146" lon="0.66757">
        <ele>94.69</ele>
        <time>2014-08-19T14:07:22Z</time>
      </trkpt>
      <trkpt lat="45.18167" lon="0.66742">
        <ele>95</ele>
        <time>2014-08-19T14:07:27Z</time>
      </trkpt>
      <trkpt lat="45.18187" lon="0.66731">
        <ele>95.6</ele>
        <time>2014-08-19T14:07:32Z</time>
      </trkpt>
      <trkpt lat="45.18214" lon="0.66717">
        <ele>96.19</ele>
        <time>2014-08-19T14:07:38Z</time>
      </trkpt>
      <trkpt lat="45.18246" lon="0.66698">
        <ele>95.69</ele>
        <time>2014-08-19T14:07:44Z</time>
      </trkpt>
      <trkpt lat="45.18282" lon="0.6668">
        <ele>96.19</ele>
        <time>2014-08-19T14:07:50Z</time>
      </trkpt>
      <trkpt lat="45.1831" lon="0.66669">
        <ele>95.6</ele>
        <time>2014-08-19T14:07:55Z</time>
      </trkpt>
      <trkpt lat="45.18345" lon="0.66659">
        <ele>95.39</ele>
        <time>2014-08-19T14:08:02Z</time>
      </trkpt>
      <trkpt lat="45.18366" lon="0.66636">
        <ele>93.6</ele>
        <time>2014-08-19T14:08:07Z</time>
      </trkpt>
      <trkpt lat="45.18391" lon="0.66598">
        <ele>91</ele>
        <time>2014-08-19T14:08:13Z</time>
      </trkpt>
      <trkpt lat="45.1842" lon="0.66566">
        <ele>88.8</ele>
        <time>2014-08-19T14:08:18Z</time>
      </trkpt>
      <trkpt lat="45.18461" lon="0.66531">
        <ele>86.89</ele>
        <time>2014-08-19T14:08:24Z</time>
      </trkpt>
      <trkpt lat="45.18497" lon="0.66494">
        <ele>85.89</ele>
        <time>2014-08-19T14:08:29Z</time>
      </trkpt>
      <trkpt lat="45.18517" lon="0.66474">
        <ele>84.19</ele>
        <time>2014-08-19T14:08:32Z</time>
      </trkpt>
      <trkpt lat="45.1855" lon="0.66462">
        <ele>82.5</ele>
        <time>2014-08-19T14:08:37Z</time>
      </trkpt>
      <trkpt lat="45.18588" lon="0.66462">
        <ele>81.6</ele>
        <time>2014-08-19T14:08:44Z</time>
      </trkpt>
      <trkpt lat="45.18584" lon="0.6643">
        <ele>81.3</ele>
        <time>2014-08-19T14:08:49Z</time>
      </trkpt>
      <trkpt lat="45.18574" lon="0.66412">
        <ele>80.39</ele>
        <time>2014-08-19T14:08:52Z</time>
      </trkpt>
      <trkpt lat="45.18565" lon="0.66395">
        <ele>78.3</ele>
        <time>2014-08-19T14:08:55Z</time>
      </trkpt>
      <trkpt lat="45.18553" lon="0.6636">
        <ele>79.39</ele>
        <time>2014-08-19T14:09:01Z</time>
      </trkpt>
      <trkpt lat="45.18546" lon="0.66335">
        <ele>80.39</ele>
        <time>2014-08-19T14:09:06Z</time>
      </trkpt>
      <trkpt lat="45.18538" lon="0.66307">
        <ele>82</ele>
        <time>2014-08-19T14:09:12Z</time>
      </trkpt>
      <trkpt lat="45.18533" lon="0.66274">
        <ele>81.1</ele>
        <time>2014-08-19T14:09:18Z</time>
      </trkpt>
      <trkpt lat="45.18528" lon="0.66229">
        <ele>81.69</ele>
        <time>2014-08-19T14:09:25Z</time>
      </trkpt>
      <trkpt lat="45.1852" lon="0.66186">
        <ele>82.5</ele>
        <time>2014-08-19T14:09:32Z</time>
      </trkpt>
      <trkpt lat="45.18513" lon="0.66158">
        <ele>84.19</ele>
        <time>2014-08-19T14:09:37Z</time>
      </trkpt>
      <trkpt lat="45.18509" lon="0.66129">
        <ele>84.69</ele>
        <time>2014-08-19T14:09:42Z</time>
      </trkpt>
      <trkpt lat="45.18527" lon="0.66104">
        <ele>84.3</ele>
        <time>2014-08-19T14:09:48Z</time>
      </trkpt>
      <trkpt lat="45.18555" lon="0.66087">
        <ele>86.5</ele>
        <time>2014-08-19T14:09:54Z</time>
      </trkpt>
      <trkpt lat="45.18581" lon="0.66072">
        <ele>84</ele>
        <time>2014-08-19T14:10:00Z</time>
      </trkpt>
      <trkpt lat="45.18607" lon="0.66063">
        <ele>83.8</ele>
        <time>2014-08-19T14:10:05Z</time>
      </trkpt>
      <trkpt lat="45.1864" lon="0.66045">
        <ele>81.1</ele>
        <time>2014-08-19T14:10:11Z</time>
      </trkpt>
      <trkpt lat="45.18677" lon="0.66037">
        <ele>79.1</ele>
        <time>2014-08-19T14:10:16Z</time>
      </trkpt>
      <trkpt lat="45.18721" lon="0.66046">
        <ele>77.5</ele>
        <time>2014-08-19T14:10:22Z</time>
      </trkpt>
      <trkpt lat="45.18752" lon="0.66073">
        <ele>76.8</ele>
        <time>2014-08-19T14:10:27Z</time>
      </trkpt>
      <trkpt lat="45.18774" lon="0.66056">
        <ele>77.3</ele>
        <time>2014-08-19T14:10:32Z</time>
      </trkpt>
      <trkpt lat="45.18762" lon="0.66015">
        <ele>75.3</ele>
        <time>2014-08-19T14:10:37Z</time>
      </trkpt>
      <trkpt lat="45.18749" lon="0.65967">
        <ele>74</ele>
        <time>2014-08-19T14:10:43Z</time>
      </trkpt>
      <trkpt lat="45.18744" lon="0.65937">
        <ele>75.3</ele>
        <time>2014-08-19T14:10:47Z</time>
      </trkpt>
      <trkpt lat="45.18738" lon="0.659">
        <ele>75.9</ele>
        <time>2014-08-19T14:10:52Z</time>
      </trkpt>
      <trkpt lat="45.18731" lon="0.65857">
        <ele>75.4</ele>
        <time>2014-08-19T14:10:58Z</time>
      </trkpt>
      <trkpt lat="45.18727" lon="0.65838">
        <ele>75.59</ele>
        <time>2014-08-19T14:11:01Z</time>
      </trkpt>
      <trkpt lat="45.18719" lon="0.65804">
        <ele>74.8</ele>
        <time>2014-08-19T14:11:06Z</time>
      </trkpt>
      <trkpt lat="45.1871" lon="0.65761">
        <ele>74.59</ele>
        <time>2014-08-19T14:11:12Z</time>
      </trkpt>
      <trkpt lat="45.18705" lon="0.65725">
        <ele>76.4</ele>
        <time>2014-08-19T14:11:17Z</time>
      </trkpt>
      <trkpt lat="45.18698" lon="0.65684">
        <ele>76</ele>
        <time>2014-08-19T14:11:23Z</time>
      </trkpt>
      <trkpt lat="45.18688" lon="0.65646">
        <ele>74</ele>
        <time>2014-08-19T14:11:29Z</time>
      </trkpt>
      <trkpt lat="45.18685" lon="0.65619">
        <ele>73.69</ele>
        <time>2014-08-19T14:11:33Z</time>
      </trkpt>
      <trkpt lat="45.18681" lon="0.65583">
        <ele>75.5</ele>
        <time>2014-08-19T14:11:38Z</time>
      </trkpt>
      <trkpt lat="45.18676" lon="0.65546">
        <ele>75.09</ele>
        <time>2014-08-19T14:11:43Z</time>
      </trkpt>
      <trkpt lat="45.18668" lon="0.65506">
        <ele>75.9</ele>
        <time>2014-08-19T14:11:49Z</time>
      </trkpt>
      <trkpt lat="45.18659" lon="0.65465">
        <ele>77.8</ele>
        <time>2014-08-19T14:11:55Z</time>
      </trkpt>
      <trkpt lat="45.18647" lon="0.65424">
        <ele>73.8</ele>
        <time>2014-08-19T14:12:01Z</time>
      </trkpt>
      <trkpt lat="45.18637" lon="0.65391">
        <ele>74.4</ele>
        <time>2014-08-19T14:12:06Z</time>
      </trkpt>
      <trkpt lat="45.18626" lon="0.65349">
        <ele>73.3</ele>
        <time>2014-08-19T14:12:12Z</time>
      </trkpt>
      <trkpt lat="45.18619" lon="0.65305">
        <ele>75.59</ele>
        <time>2014-08-19T14:12:18Z</time>
      </trkpt>
      <trkpt lat="45.18612" lon="0.65256">
        <ele>76.69</ele>
        <time>2014-08-19T14:12:25Z</time>
      </trkpt>
      <trkpt lat="45.18602" lon="0.6522">
        <ele>76.19</ele>
        <time>2014-08-19T14:12:30Z</time>
      </trkpt>
      <trkpt lat="45.18591" lon="0.65188">
        <ele>77</ele>
        <time>2014-08-19T14:12:35Z</time>
      </trkpt>
      <trkpt lat="45.18576" lon="0.65157">
        <ele>76.4</ele>
        <time>2014-08-19T14:12:40Z</time>
      </trkpt>
      <trkpt lat="45.18562" lon="0.65122">
        <ele>76.4</ele>
        <time>2014-08-19T14:12:46Z</time>
      </trkpt>
      <trkpt lat="45.18559" lon="0.65075">
        <ele>80</ele>
        <time>2014-08-19T14:12:53Z</time>
      </trkpt>
      <trkpt lat="45.18557" lon="0.65039">
        <ele>77.9</ele>
        <time>2014-08-19T14:12:58Z</time>
      </trkpt>
      <trkpt lat="45.18555" lon="0.65006">
        <ele>76</ele>
        <time>2014-08-19T14:13:03Z</time>
      </trkpt>
      <trkpt lat="45.18553" lon="0.64962">
        <ele>75.19</ele>
        <time>2014-08-19T14:13:09Z</time>
      </trkpt>
      <trkpt lat="45.18551" lon="0.64919">
        <ele>77.8</ele>
        <time>2014-08-19T14:13:15Z</time>
      </trkpt>
      <trkpt lat="45.18536" lon="0.64866">
        <ele>78.4</ele>
        <time>2014-08-19T14:13:22Z</time>
      </trkpt>
      <trkpt lat="45.18525" lon="0.64835">
        <ele>78.9</ele>
        <time>2014-08-19T14:13:27Z</time>
      </trkpt>
      <trkpt lat="45.18512" lon="0.64795">
        <ele>77.69</ele>
        <time>2014-08-19T14:13:33Z</time>
      </trkpt>
      <trkpt lat="45.1851" lon="0.64775">
        <ele>77.4</ele>
        <time>2014-08-19T14:13:36Z</time>
      </trkpt>
      <trkpt lat="45.18511" lon="0.64753">
        <ele>75.9</ele>
        <time>2014-08-19T14:13:39Z</time>
      </trkpt>
      <trkpt lat="45.18509" lon="0.64706">
        <ele>74.3</ele>
        <time>2014-08-19T14:13:45Z</time>
      </trkpt>
      <trkpt lat="45.1851" lon="0.64657">
        <ele>73.8</ele>
        <time>2014-08-19T14:13:51Z</time>
      </trkpt>
      <trkpt lat="45.18512" lon="0.64615">
        <ele>72.09</ele>
        <time>2014-08-19T14:13:56Z</time>
      </trkpt>
      <trkpt lat="45.18516" lon="0.64569">
        <ele>71.9</ele>
        <time>2014-08-19T14:14:02Z</time>
      </trkpt>
      <trkpt lat="45.18516" lon="0.64547">
        <ele>73.3</ele>
        <time>2014-08-19T14:14:05Z</time>
      </trkpt>
      <trkpt lat="45.18518" lon="0.64497">
        <ele>70.9</ele>
        <time>2014-08-19T14:14:13Z</time>
      </trkpt>
      <trkpt lat="45.18517" lon="0.64466">
        <ele>70.9</ele>
        <time>2014-08-19T14:14:18Z</time>
      </trkpt>
      <trkpt lat="45.18519" lon="0.64429">
        <ele>71</ele>
        <time>2014-08-19T14:14:24Z</time>
      </trkpt>
      <trkpt lat="45.18517" lon="0.64389">
        <ele>71</ele>
        <time>2014-08-19T14:14:30Z</time>
      </trkpt>
      <trkpt lat="45.18517" lon="0.6435">
        <ele>72</ele>
        <time>2014-08-19T14:14:36Z</time>
      </trkpt>
      <trkpt lat="45.18519" lon="0.64317">
        <ele>71.4</ele>
        <time>2014-08-19T14:14:41Z</time>
      </trkpt>
      <trkpt lat="45.18522" lon="0.64278">
        <ele>71.09</ele>
        <time>2014-08-19T14:14:47Z</time>
      </trkpt>
      <trkpt lat="45.18529" lon="0.64231">
        <ele>72.59</ele>
        <time>2014-08-19T14:14:55Z</time>
      </trkpt>
      <trkpt lat="45.18535" lon="0.642">
        <ele>73.4</ele>
        <time>2014-08-19T14:15:00Z</time>
      </trkpt>
      <trkpt lat="45.18539" lon="0.64174">
        <ele>74.4</ele>
        <time>2014-08-19T14:15:04Z</time>
      </trkpt>
      <trkpt lat="45.18543" lon="0.64134">
        <ele>74.09</ele>
        <time>2014-08-19T14:15:10Z</time>
      </trkpt>
      <trkpt lat="45.18545" lon="0.64097">
        <ele>74.8</ele>
        <time>2014-08-19T14:15:16Z</time>
      </trkpt>
      <trkpt lat="45.18546" lon="0.64049">
        <ele>76.09</ele>
        <time>2014-08-19T14:15:23Z</time>
      </trkpt>
      <trkpt lat="45.18548" lon="0.64011">
        <ele>78</ele>
        <time>2014-08-19T14:15:29Z</time>
      </trkpt>
      <trkpt lat="45.18549" lon="0.63966">
        <ele>76.09</ele>
        <time>2014-08-19T14:15:35Z</time>
      </trkpt>
      <trkpt lat="45.18549" lon="0.63929">
        <ele>75.59</ele>
        <time>2014-08-19T14:15:40Z</time>
      </trkpt>
      <trkpt lat="45.18549" lon="0.63889">
        <ele>75</ele>
        <time>2014-08-19T14:15:46Z</time>
      </trkpt>
      <trkpt lat="45.18551" lon="0.63853">
        <ele>75.4</ele>
        <time>2014-08-19T14:15:52Z</time>
      </trkpt>
      <trkpt lat="45.18567" lon="0.63829">
        <ele>75.4</ele>
        <time>2014-08-19T14:15:58Z</time>
      </trkpt>
      <trkpt lat="45.18589" lon="0.63811">
        <ele>74.9</ele>
        <time>2014-08-19T14:16:03Z</time>
      </trkpt>
      <trkpt lat="45.18604" lon="0.63789">
        <ele>74.19</ele>
        <time>2014-08-19T14:16:07Z</time>
      </trkpt>
      <trkpt lat="45.18615" lon="0.63772">
        <ele>73.59</ele>
        <time>2014-08-19T14:16:10Z</time>
      </trkpt>
      <trkpt lat="45.18637" lon="0.63739">
        <ele>75.5</ele>
        <time>2014-08-19T14:16:16Z</time>
      </trkpt>
      <trkpt lat="45.18645" lon="0.63719">
        <ele>76.19</ele>
        <time>2014-08-19T14:16:19Z</time>
      </trkpt>
      <trkpt lat="45.18653" lon="0.63698">
        <ele>75.8</ele>
        <time>2014-08-19T14:16:22Z</time>
      </trkpt>
      <trkpt lat="45.18662" lon="0.63681">
        <ele>75.69</ele>
        <time>2014-08-19T14:16:25Z</time>
      </trkpt>
      <trkpt lat="45.18678" lon="0.63653">
        <ele>76.59</ele>
        <time>2014-08-19T14:16:31Z</time>
      </trkpt>
      <trkpt lat="45.18687" lon="0.63631">
        <ele>76.4</ele>
        <time>2014-08-19T14:16:36Z</time>
      </trkpt>
      <trkpt lat="45.18677" lon="0.63611">
        <ele>76.4</ele>
        <time>2014-08-19T14:16:41Z</time>
      </trkpt>
      <trkpt lat="45.1866" lon="0.63596">
        <ele>78.09</ele>
        <time>2014-08-19T14:16:47Z</time>
      </trkpt>
      <trkpt lat="45.1864" lon="0.63575">
        <ele>78.8</ele>
        <time>2014-08-19T14:16:54Z</time>
      </trkpt>
      <trkpt lat="45.18633" lon="0.63552">
        <ele>77.4</ele>
        <time>2014-08-19T14:16:59Z</time>
      </trkpt>
      <trkpt lat="45.18625" lon="0.63519">
        <ele>74.09</ele>
        <time>2014-08-19T14:17:05Z</time>
      </trkpt>
      <trkpt lat="45.18624" lon="0.63487">
        <ele>75.4</ele>
        <time>2014-08-19T14:17:11Z</time>
      </trkpt>
      <trkpt lat="45.18629" lon="0.63461">
        <ele>76</ele>
        <time>2014-08-19T14:17:16Z</time>
      </trkpt>
      <trkpt lat="45.18639" lon="0.63432">
        <ele>77.5</ele>
        <time>2014-08-19T14:17:23Z</time>
      </trkpt>
      <trkpt lat="45.18627" lon="0.63409">
        <ele>76.69</ele>
        <time>2014-08-19T14:17:29Z</time>
      </trkpt>
      <trkpt lat="45.18618" lon="0.63387">
        <ele>75.3</ele>
        <time>2014-08-19T14:17:35Z</time>
      </trkpt>
      <trkpt lat="45.18627" lon="0.63356">
        <ele>75.8</ele>
        <time>2014-08-19T14:17:41Z</time>
      </trkpt>
      <trkpt lat="45.18608" lon="0.63334">
        <ele>76.69</ele>
        <time>2014-08-19T14:17:48Z</time>
      </trkpt>
      <trkpt lat="45.18603" lon="0.63331">
        <ele>76.4</ele>
        <time>2014-08-19T14:17:50Z</time>
      </trkpt>
      <trkpt lat="45.18602" lon="0.63326">
        <ele>76.69</ele>
        <time>2014-08-19T14:17:56Z</time>
      </trkpt>
      <trkpt lat="45.18602" lon="0.63326">
        <ele>79</ele>
        <time>2014-08-19T14:18:19Z</time>
      </trkpt>
      <trkpt lat="45.18602" lon="0.63326">
        <ele>79</ele>
        <time>2014-08-19T14:18:24Z</time>
      </trkpt>
    </trkseg>
  </trk>
</gpx>